Time,TemperatureF,DewpointF,PressureIn,WindDirection,WindDirectionDegrees,WindSpeedMPH,WindSpeedGustMPH,Humidity,HourlyPrecipIn,Conditions,Clouds,dailyrainin,SoftwareType,DateUTC
2013-10-20 00:00:00,46.3,40.8,29.88,East,90,0.7,0.7,81,0.00,,,0.00,VWS V14.01,2013-10-20 04:00:00,
2013-10-20 00:01:00,46.3,41.4,29.88,NW,315,1.8,1.8,83,0.00,,,0.00,VWS V14.01,2013-10-20 04:01:00,
2013-10-20 00:02:00,46.3,41.4,29.88,NW,315,1.8,1.8,83,0.00,,,0.00,VWS V14.01,2013-10-20 04:02:00,
2013-10-20 00:03:00,46.3,41.7,29.88,NW,315,0.0,1.8,84,0.00,,,0.00,VWS V14.01,2013-10-20 04:03:00,
2013-10-20 00:04:00,46.1,41.2,29.88,NNE,22,0.0,1.8,83,0.00,,,0.00,VWS V14.01,2013-10-20 04:04:00,
2013-10-20 00:06:00,46.1,41.2,29.88,NNE,22,0.0,0.0,83,0.00,,,0.00,VWS V14.01,2013-10-20 04:06:00,
2013-10-20 00:07:00,46.1,41.2,29.88,NNE,22,0.0,0.0,83,0.00,,,0.00,VWS V14.01,2013-10-20 04:07:00,
2013-10-20 00:08:00,46.1,41.2,29.88,SE,135,1.3,1.3,83,0.00,,,0.00,VWS V14.01,2013-10-20 04:08:00,
2013-10-20 00:10:00,46.1,41.2,29.88,SE,135,1.3,1.3,83,0.00,,,0.00,VWS V14.01,2013-10-20 04:10:00,
2013-10-20 00:11:00,46.1,41.2,29.88,SE,135,1.3,1.3,83,0.00,,,0.00,VWS V14.01,2013-10-20 04:11:00,
2013-10-20 00:12:00,45.9,40.1,29.88,SSW,202,2.0,2.0,80,0.00,,,0.00,VWS V14.01,2013-10-20 04:12:00,
2013-10-20 00:13:00,45.9,40.1,29.88,SSW,202,2.0,2.0,80,0.00,,,0.00,VWS V14.01,2013-10-20 04:13:00,
2013-10-20 00:14:00,45.9,40.1,29.88,SSW,202,2.0,2.0,80,0.00,,,0.00,VWS V14.01,2013-10-20 04:14:00,
2013-10-20 00:15:00,46.1,39.6,29.88,SW,225,0.4,2.0,78,0.00,,,0.00,VWS V14.01,2013-10-20 04:15:00,
2013-10-20 00:16:00,46.1,40.0,29.88,SSW,202,1.3,1.3,79,0.00,,,0.00,VWS V14.01,2013-10-20 04:16:00,
2013-10-20 00:17:00,46.1,40.3,29.88,SW,225,1.8,1.8,80,0.00,,,0.00,VWS V14.01,2013-10-20 04:17:00,
2013-10-20 00:18:00,46.1,40.3,29.88,SW,225,1.8,1.8,80,0.00,,,0.00,VWS V14.01,2013-10-20 04:18:00,
2013-10-20 00:20:00,46.1,39.3,29.88,South,180,0.4,1.8,77,0.00,,,0.00,VWS V14.01,2013-10-20 04:20:00,
2013-10-20 00:21:00,46.1,39.3,29.88,South,180,0.4,0.4,77,0.00,,,0.00,VWS V14.01,2013-10-20 04:21:00,
2013-10-20 00:22:00,46.1,39.3,29.88,South,180,0.4,0.4,77,0.00,,,0.00,VWS V14.01,2013-10-20 04:22:00,
2013-10-20 00:23:00,46.1,39.3,29.88,South,180,0.4,0.4,77,0.00,,,0.00,VWS V14.01,2013-10-20 04:23:00,
2013-10-20 00:24:00,45.9,39.4,29.88,WSW,248,1.6,1.6,78,0.00,,,0.00,VWS V14.01,2013-10-20 04:24:00,
2013-10-20 00:26:00,45.9,39.4,29.88,WSW,248,1.6,1.6,78,0.00,,,0.00,VWS V14.01,2013-10-20 04:26:00,
2013-10-20 00:27:00,46.1,39.6,29.88,WSW,248,0.4,1.6,78,0.00,,,0.00,VWS V14.01,2013-10-20 04:27:00,
2013-10-20 00:28:00,46.1,39.6,29.88,WSW,248,0.4,0.4,78,0.00,,,0.00,VWS V14.01,2013-10-20 04:28:00,
2013-10-20 00:29:00,46.1,39.6,29.88,WSW,248,0.4,0.4,78,0.00,,,0.00,VWS V14.01,2013-10-20 04:29:00,
2013-10-20 00:30:00,46.1,39.6,29.88,North,0,0.0,0.4,78,0.00,,,0.00,VWS V14.01,2013-10-20 04:30:00,
2013-10-20 00:31:00,45.9,39.8,29.88,ENE,68,1.1,1.1,79,0.00,,,0.00,VWS V14.01,2013-10-20 04:31:00,
2013-10-20 00:32:00,45.9,39.8,29.88,East,90,1.6,1.6,79,0.00,,,0.00,VWS V14.01,2013-10-20 04:32:00,
2013-10-20 00:33:00,45.9,39.8,29.88,East,90,1.6,1.6,79,0.00,,,0.00,VWS V14.01,2013-10-20 04:33:00,
2013-10-20 00:34:00,45.5,39.7,29.88,North,0,0.4,0.4,80,0.00,,,0.00,VWS V14.01,2013-10-20 04:34:00,
2013-10-20 00:36:00,45.5,39.7,29.88,North,0,0.4,0.4,80,0.00,,,0.00,VWS V14.01,2013-10-20 04:36:00,
2013-10-20 00:37:00,45.5,39.7,29.88,North,0,0.4,0.4,80,0.00,,,0.00,VWS V14.01,2013-10-20 04:37:00,
2013-10-20 00:38:00,45.5,39.7,29.88,North,0,0.4,0.4,80,0.00,,,0.00,VWS V14.01,2013-10-20 04:38:00,
2013-10-20 00:39:00,45.4,39.9,29.88,ESE,112,0.4,0.4,81,0.00,,,0.00,VWS V14.01,2013-10-20 04:39:00,
2013-10-20 00:40:00,45.4,39.9,29.88,ESE,112,0.4,0.4,81,0.00,,,0.00,VWS V14.01,2013-10-20 04:40:00,
2013-10-20 00:41:00,45.2,39.7,29.88,NNW,338,0.0,0.0,81,0.00,,,0.00,VWS V14.01,2013-10-20 04:41:00,
2013-10-20 00:42:00,45.2,39.7,29.88,NNW,338,0.0,0.0,81,0.00,,,0.00,VWS V14.01,2013-10-20 04:42:00,
2013-10-20 00:43:00,45.2,39.7,29.88,NNW,338,0.0,0.0,81,0.00,,,0.00,VWS V14.01,2013-10-20 04:43:00,
2013-10-20 00:44:00,44.8,39.3,29.88,NNE,22,0.4,0.4,81,0.00,,,0.00,VWS V14.01,2013-10-20 04:44:00,
2013-10-20 00:45:00,44.8,39.3,29.88,NNE,22,0.4,0.4,81,0.00,,,0.00,VWS V14.01,2013-10-20 04:45:00,
2013-10-20 00:46:00,44.6,39.1,29.88,North,0,0.7,0.7,81,0.00,,,0.00,VWS V14.01,2013-10-20 04:46:00,
2013-10-20 00:47:00,44.6,39.1,29.88,North,0,0.7,0.7,81,0.00,,,0.00,VWS V14.01,2013-10-20 04:47:00,
2013-10-20 00:48:00,44.3,39.2,29.88,North,0,0.7,0.7,82,0.00,,,0.00,VWS V14.01,2013-10-20 04:48:00,
2013-10-20 00:49:00,44.3,39.2,29.88,North,0,0.7,0.7,82,0.00,,,0.00,VWS V14.01,2013-10-20 04:49:00,
2013-10-20 00:50:00,44.3,39.2,29.88,North,0,0.7,0.7,82,0.00,,,0.00,VWS V14.01,2013-10-20 04:50:00,
2013-10-20 00:52:00,44.3,39.5,29.88,ENE,68,0.0,0.7,83,0.00,,,0.00,VWS V14.01,2013-10-20 04:52:00,
2013-10-20 00:53:00,44.3,39.5,29.88,ENE,68,0.0,0.0,83,0.00,,,0.00,VWS V14.01,2013-10-20 04:53:00,
2013-10-20 00:54:00,44.3,39.5,29.88,ENE,68,0.0,0.0,83,0.00,,,0.00,VWS V14.01,2013-10-20 04:54:00,
2013-10-20 00:55:00,44.3,39.5,29.88,ENE,68,0.0,0.0,83,0.00,,,0.00,VWS V14.01,2013-10-20 04:55:00,
2013-10-20 00:56:00,43.9,39.4,29.88,NNW,338,0.4,0.4,84,0.00,,,0.00,VWS V14.01,2013-10-20 04:56:00,
2013-10-20 00:57:00,43.9,39.4,29.88,NNW,338,0.4,0.4,84,0.00,,,0.00,VWS V14.01,2013-10-20 04:57:00,
2013-10-20 00:58:00,43.9,39.4,29.88,NNW,338,0.4,0.4,84,0.00,,,0.00,VWS V14.01,2013-10-20 04:58:00,
2013-10-20 00:59:00,43.7,38.9,29.88,NNW,338,0.0,0.4,83,0.00,,,0.00,VWS V14.01,2013-10-20 04:59:00,
2013-10-20 01:00:00,43.7,38.9,29.88,NNW,338,0.0,0.4,83,0.00,,,0.00,VWS V14.01,2013-10-20 05:00:00,
2013-10-20 01:01:00,43.7,38.9,29.88,NNW,338,0.0,0.0,83,0.00,,,0.00,VWS V14.01,2013-10-20 05:01:00,
2013-10-20 01:02:00,43.7,39.5,29.88,NNW,338,0.2,0.2,85,0.00,,,0.00,VWS V14.01,2013-10-20 05:02:00,
2013-10-20 01:03:00,43.7,39.2,29.88,NNW,338,0.4,0.4,84,0.00,,,0.00,VWS V14.01,2013-10-20 05:03:00,
2013-10-20 01:04:00,43.7,39.2,29.88,NNW,338,0.4,0.4,84,0.00,,,0.00,VWS V14.01,2013-10-20 05:04:00,
2013-10-20 01:05:00,43.7,39.2,29.88,NNW,338,0.4,0.4,84,0.00,,,0.00,VWS V14.01,2013-10-20 05:05:00,
2013-10-20 01:06:00,43.7,39.5,29.88,NNW,338,0.0,0.4,85,0.00,,,0.00,VWS V14.01,2013-10-20 05:06:00,
2013-10-20 01:07:00,43.7,39.5,29.88,NNW,338,0.0,0.0,85,0.00,,,0.00,VWS V14.01,2013-10-20 05:07:00,
2013-10-20 01:08:00,43.7,39.5,29.88,NNW,338,0.0,0.0,85,0.00,,,0.00,VWS V14.01,2013-10-20 05:08:00,
2013-10-20 01:09:00,43.7,39.5,29.88,NNW,338,0.0,0.0,85,0.00,,,0.00,VWS V14.01,2013-10-20 05:09:00,
2013-10-20 01:10:00,43.6,40.0,29.88,West,270,0.7,0.7,87,0.00,,,0.00,VWS V14.01,2013-10-20 05:10:00,
2013-10-20 01:12:00,43.6,40.0,29.88,West,270,0.7,0.7,87,0.00,,,0.00,VWS V14.01,2013-10-20 05:12:00,
2013-10-20 01:13:00,43.6,40.0,29.88,West,270,0.7,0.7,87,0.00,,,0.00,VWS V14.01,2013-10-20 05:13:00,
2013-10-20 01:14:00,43.6,39.4,29.88,North,0,0.9,0.9,85,0.00,,,0.00,VWS V14.01,2013-10-20 05:14:00,
2013-10-20 01:15:00,43.6,39.7,29.88,North,0,0.0,0.9,86,0.00,,,0.00,VWS V14.01,2013-10-20 05:15:00,
2013-10-20 01:16:00,43.6,39.7,29.88,North,0,0.0,0.9,86,0.00,,,0.00,VWS V14.01,2013-10-20 05:16:00,
2013-10-20 01:17:00,43.6,39.7,29.88,North,0,0.0,0.0,86,0.00,,,0.00,VWS V14.01,2013-10-20 05:17:00,
2013-10-20 01:18:00,43.6,39.4,29.88,NE,45,0.9,0.9,85,0.00,,,0.00,VWS V14.01,2013-10-20 05:18:00,
2013-10-20 01:20:00,43.6,39.7,29.89,WSW,248,1.1,1.1,86,0.00,,,0.00,VWS V14.01,2013-10-20 05:20:00,
2013-10-20 01:21:00,43.6,39.7,29.89,WSW,248,1.1,1.1,86,0.00,,,0.00,VWS V14.01,2013-10-20 05:21:00,
2013-10-20 01:22:00,43.6,40.0,29.88,SW,225,0.4,1.1,87,0.00,,,0.00,VWS V14.01,2013-10-20 05:22:00,
2013-10-20 01:23:00,43.6,40.0,29.88,SW,225,0.4,0.4,87,0.00,,,0.00,VWS V14.01,2013-10-20 05:23:00,
2013-10-20 01:24:00,43.6,40.0,29.88,SW,225,0.4,0.4,87,0.00,,,0.00,VWS V14.01,2013-10-20 05:24:00,
2013-10-20 01:25:00,43.6,40.0,29.88,SW,225,0.4,0.4,87,0.00,,,0.00,VWS V14.01,2013-10-20 05:25:00,
2013-10-20 01:26:00,43.6,39.4,29.89,NE,45,0.0,0.4,85,0.00,,,0.00,VWS V14.01,2013-10-20 05:26:00,
2013-10-20 01:28:00,43.6,39.1,29.88,NW,315,2.7,2.7,84,0.00,,,0.00,VWS V14.01,2013-10-20 05:28:00,
2013-10-20 01:29:00,43.6,39.1,29.88,NW,315,2.7,2.7,84,0.00,,,0.00,VWS V14.01,2013-10-20 05:29:00,
2013-10-20 01:30:00,43.6,39.1,29.88,NW,315,2.7,2.7,84,0.00,,,0.00,VWS V14.01,2013-10-20 05:30:00,
2013-10-20 01:31:00,43.6,39.1,29.88,NW,315,2.7,2.7,84,0.00,,,0.00,VWS V14.01,2013-10-20 05:31:00,
2013-10-20 01:32:00,43.9,38.5,29.88,NNW,338,0.4,4.3,81,0.00,,,0.00,VWS V14.01,2013-10-20 05:32:00,
2013-10-20 01:34:00,44.1,39.3,29.88,WNW,292,1.1,1.1,83,0.00,,,0.00,VWS V14.01,2013-10-20 05:34:00,
2013-10-20 01:35:00,44.1,39.3,29.88,WNW,292,1.1,1.1,83,0.00,,,0.00,VWS V14.01,2013-10-20 05:35:00,
2013-10-20 01:36:00,44.1,39.3,29.88,ESE,112,0.0,1.1,83,0.00,,,0.00,VWS V14.01,2013-10-20 05:36:00,
2013-10-20 01:38:00,44.1,39.3,29.88,NNE,22,0.0,0.0,83,0.00,,,0.00,VWS V14.01,2013-10-20 05:38:00,
2013-10-20 01:39:00,43.9,38.8,29.89,North,0,0.4,0.4,82,0.00,,,0.00,VWS V14.01,2013-10-20 05:39:00,
2013-10-20 01:40:00,43.9,38.8,29.89,North,0,0.4,0.4,82,0.00,,,0.00,VWS V14.01,2013-10-20 05:40:00,
2013-10-20 01:41:00,43.9,38.8,29.89,North,0,0.4,0.4,82,0.00,,,0.00,VWS V14.01,2013-10-20 05:41:00,
2013-10-20 01:42:00,43.7,39.2,29.89,West,270,0.0,0.4,84,0.00,,,0.00,VWS V14.01,2013-10-20 05:42:00,
2013-10-20 01:44:00,43.6,39.1,29.88,ESE,112,0.0,0.0,84,0.00,,,0.00,VWS V14.01,2013-10-20 05:44:00,
2013-10-20 01:46:00,43.4,39.2,29.89,WNW,292,1.1,1.1,85,0.00,,,0.00,VWS V14.01,2013-10-20 05:46:00,
2013-10-20 01:47:00,43.2,38.7,29.89,NNW,338,0.9,0.9,84,0.00,,,0.00,VWS V14.01,2013-10-20 05:47:00,
2013-10-20 01:48:00,43.0,38.5,29.89,NNW,338,0.9,0.9,84,0.00,,,0.00,VWS V14.01,2013-10-20 05:48:00,
2013-10-20 01:50:00,43.0,37.6,29.89,WNW,292,1.6,1.6,81,0.00,,,0.00,VWS V14.01,2013-10-20 05:50:00,
2013-10-20 01:51:00,43.0,37.6,29.89,WNW,292,1.6,1.6,81,0.00,,,0.00,VWS V14.01,2013-10-20 05:51:00,
2013-10-20 01:53:00,42.8,38.0,29.88,SW,225,0.4,2.5,83,0.00,,,0.00,VWS V14.01,2013-10-20 05:53:00,
2013-10-20 01:54:00,42.8,38.0,29.89,SW,225,0.4,2.5,83,0.00,,,0.00,VWS V14.01,2013-10-20 05:54:00,
2013-10-20 01:55:00,42.8,38.0,29.89,SW,225,0.4,0.4,83,0.00,,,0.00,VWS V14.01,2013-10-20 05:55:00,
2013-10-20 01:56:00,42.8,38.0,29.89,SW,225,0.4,0.4,83,0.00,,,0.00,VWS V14.01,2013-10-20 05:56:00,
2013-10-20 01:57:00,42.8,38.0,29.89,SW,225,0.4,0.4,83,0.00,,,0.00,VWS V14.01,2013-10-20 05:57:00,
2013-10-20 01:58:00,42.8,38.0,29.89,ESE,112,0.4,0.4,83,0.00,,,0.00,VWS V14.01,2013-10-20 05:58:00,
2013-10-20 02:00:00,42.8,38.0,29.89,ESE,112,0.4,0.4,83,0.00,,,0.00,VWS V14.01,2013-10-20 06:00:00,
2013-10-20 02:02:00,42.3,37.5,29.89,North,0,0.0,0.0,83,0.00,,,0.00,VWS V14.01,2013-10-20 06:02:00,
2013-10-20 02:03:00,42.1,37.6,29.89,North,0,0.0,0.0,84,0.00,,,0.00,VWS V14.01,2013-10-20 06:03:00,
2013-10-20 02:04:00,42.1,37.6,29.89,North,0,0.2,0.2,84,0.00,,,0.00,VWS V14.01,2013-10-20 06:04:00,
2013-10-20 02:05:00,42.1,37.6,29.89,North,0,0.2,0.2,84,0.00,,,0.00,VWS V14.01,2013-10-20 06:05:00,
2013-10-20 02:06:00,41.9,37.7,29.89,West,270,0.9,0.9,85,0.00,,,0.00,VWS V14.01,2013-10-20 06:06:00,
2013-10-20 02:07:00,41.9,37.7,29.89,WSW,248,0.2,0.9,85,0.00,,,0.00,VWS V14.01,2013-10-20 06:07:00,
2013-10-20 02:08:00,41.9,37.7,29.89,WSW,248,0.2,0.2,85,0.00,,,0.00,VWS V14.01,2013-10-20 06:08:00,
2013-10-20 02:10:00,41.9,37.7,29.89,WSW,248,0.2,0.2,85,0.00,,,0.00,VWS V14.01,2013-10-20 06:10:00,
2013-10-20 02:11:00,41.4,36.9,29.89,NE,45,0.0,0.2,84,0.00,,,0.00,VWS V14.01,2013-10-20 06:11:00,
2013-10-20 02:12:00,41.4,36.9,29.89,NE,45,0.0,0.0,84,0.00,,,0.00,VWS V14.01,2013-10-20 06:12:00,
2013-10-20 02:13:00,41.2,37.0,29.89,WSW,248,0.9,0.9,85,0.00,,,0.00,VWS V14.01,2013-10-20 06:13:00,
2013-10-20 02:14:00,41.2,37.0,29.89,WSW,248,0.9,0.9,85,0.00,,,0.00,VWS V14.01,2013-10-20 06:14:00,
2013-10-20 02:15:00,41.2,37.0,29.89,WSW,248,0.9,0.9,85,0.00,,,0.00,VWS V14.01,2013-10-20 06:15:00,
2013-10-20 02:16:00,41.2,37.0,29.89,WSW,248,0.9,0.9,85,0.00,,,0.00,VWS V14.01,2013-10-20 06:16:00,
2013-10-20 02:17:00,40.7,36.2,29.90,NNW,338,0.0,0.9,84,0.00,,,0.00,VWS V14.01,2013-10-20 06:17:00,
2013-10-20 02:18:00,40.7,36.2,29.89,NNW,338,0.0,0.9,84,0.00,,,0.00,VWS V14.01,2013-10-20 06:18:00,
2013-10-20 02:19:00,40.7,36.2,29.90,NNW,338,0.0,0.0,84,0.00,,,0.00,VWS V14.01,2013-10-20 06:19:00,
2013-10-20 02:20:00,40.7,36.2,29.90,NNW,338,0.0,0.0,84,0.00,,,0.00,VWS V14.01,2013-10-20 06:20:00,
2013-10-20 02:21:00,40.3,36.5,29.89,North,0,0.0,0.0,86,0.00,,,0.00,VWS V14.01,2013-10-20 06:21:00,
2013-10-20 02:22:00,40.3,36.5,29.90,North,0,0.0,0.0,86,0.00,,,0.00,VWS V14.01,2013-10-20 06:22:00,
2013-10-20 02:23:00,40.3,36.5,29.90,North,0,0.0,0.0,86,0.00,,,0.00,VWS V14.01,2013-10-20 06:23:00,
2013-10-20 02:24:00,40.3,36.5,29.90,North,0,0.0,0.0,86,0.00,,,0.00,VWS V14.01,2013-10-20 06:24:00,
2013-10-20 02:25:00,40.3,36.5,29.90,North,0,0.0,0.0,86,0.00,,,0.00,VWS V14.01,2013-10-20 06:25:00,
2013-10-20 02:26:00,40.1,36.8,29.90,West,270,0.4,0.4,88,0.00,,,0.00,VWS V14.01,2013-10-20 06:26:00,
2013-10-20 02:28:00,40.1,36.8,29.90,West,270,0.2,0.2,88,0.00,,,0.00,VWS V14.01,2013-10-20 06:28:00,
2013-10-20 02:30:00,40.0,36.2,29.90,North,0,0.4,0.4,86,0.00,,,0.00,VWS V14.01,2013-10-20 06:30:00,
2013-10-20 02:31:00,40.0,36.2,29.90,North,0,0.4,0.4,86,0.00,,,0.00,VWS V14.01,2013-10-20 06:31:00,
2013-10-20 02:32:00,40.0,37.0,29.90,SW,225,0.9,0.9,89,0.00,,,0.00,VWS V14.01,2013-10-20 06:32:00,
2013-10-20 02:33:00,40.0,37.0,29.90,SW,225,0.9,0.9,89,0.00,,,0.00,VWS V14.01,2013-10-20 06:33:00,
2013-10-20 02:34:00,39.8,36.5,29.90,SW,225,0.0,0.9,88,0.00,,,0.00,VWS V14.01,2013-10-20 06:34:00,
2013-10-20 02:35:00,39.8,36.2,29.90,SW,225,0.0,0.0,87,0.00,,,0.00,VWS V14.01,2013-10-20 06:35:00,
2013-10-20 02:36:00,39.8,36.2,29.90,SW,225,0.0,0.0,87,0.00,,,0.00,VWS V14.01,2013-10-20 06:36:00,
2013-10-20 02:38:00,39.4,36.2,29.90,NNE,22,0.0,0.0,88,0.00,,,0.00,VWS V14.01,2013-10-20 06:38:00,
2013-10-20 02:40:00,39.4,36.2,29.90,NNE,22,0.0,0.0,88,0.00,,,0.00,VWS V14.01,2013-10-20 06:40:00,
2013-10-20 02:41:00,39.4,36.2,29.90,NNE,22,0.0,0.0,88,0.00,,,0.00,VWS V14.01,2013-10-20 06:41:00,
2013-10-20 02:42:00,39.4,36.2,29.90,NNE,22,0.0,0.0,88,0.00,,,0.00,VWS V14.01,2013-10-20 06:42:00,
2013-10-20 02:43:00,39.2,36.5,29.90,NW,315,0.0,0.0,90,0.00,,,0.00,VWS V14.01,2013-10-20 06:43:00,
2013-10-20 02:44:00,39.2,36.2,29.90,NW,315,0.0,0.0,89,0.00,,,0.00,VWS V14.01,2013-10-20 06:44:00,
2013-10-20 02:46:00,39.2,36.2,29.90,NNE,22,0.0,0.0,89,0.00,,,0.00,VWS V14.01,2013-10-20 06:46:00,
2013-10-20 02:47:00,39.1,36.1,29.90,NNE,22,0.0,0.0,89,0.00,,,0.00,VWS V14.01,2013-10-20 06:47:00,
2013-10-20 02:48:00,39.1,36.1,29.90,NNE,22,0.0,0.0,89,0.00,,,0.00,VWS V14.01,2013-10-20 06:48:00,
2013-10-20 02:49:00,39.1,36.4,29.90,WNW,292,0.4,0.4,90,0.00,,,0.00,VWS V14.01,2013-10-20 06:49:00,
2013-10-20 02:50:00,39.1,37.0,29.90,West,270,0.7,0.7,92,0.00,,,0.00,VWS V14.01,2013-10-20 06:50:00,
2013-10-20 02:51:00,39.1,37.0,29.90,West,270,0.7,0.7,92,0.00,,,0.00,VWS V14.01,2013-10-20 06:51:00,
2013-10-20 02:52:00,38.9,36.2,29.90,West,270,0.0,0.7,90,0.00,,,0.00,VWS V14.01,2013-10-20 06:52:00,
2013-10-20 02:53:00,38.9,36.2,29.90,West,270,0.0,0.0,90,0.00,,,0.00,VWS V14.01,2013-10-20 06:53:00,
2013-10-20 02:54:00,38.9,36.2,29.90,West,270,0.0,0.0,90,0.00,,,0.00,VWS V14.01,2013-10-20 06:54:00,
2013-10-20 02:56:00,38.7,35.7,29.90,North,0,0.4,0.4,89,0.00,,,0.00,VWS V14.01,2013-10-20 06:56:00,
2013-10-20 02:58:00,38.7,35.7,29.90,North,0,0.4,0.4,89,0.00,,,0.00,VWS V14.01,2013-10-20 06:58:00,
2013-10-20 02:59:00,38.7,35.7,29.90,North,0,0.0,0.4,89,0.00,,,0.00,VWS V14.01,2013-10-20 06:59:00,
2013-10-20 03:00:00,38.7,35.7,29.90,North,0,0.0,0.4,89,0.00,,,0.00,VWS V14.01,2013-10-20 07:00:00,
2013-10-20 03:04:00,38.7,36.0,29.90,WNW,292,0.4,0.4,90,0.00,,,0.00,VWS V14.01,2013-10-20 07:04:00,
2013-10-20 03:05:00,38.5,35.8,29.90,WNW,292,0.7,0.7,90,0.00,,,0.00,VWS V14.01,2013-10-20 07:05:00,
2013-10-20 03:09:00,38.5,36.1,29.90,NW,315,0.4,1.3,91,0.00,,,0.00,VWS V14.01,2013-10-20 07:09:00,
2013-10-20 03:10:00,38.5,36.4,29.90,West,270,0.7,1.3,92,0.00,,,0.00,VWS V14.01,2013-10-20 07:10:00,
2013-10-20 03:14:00,38.3,36.2,29.90,SSW,202,1.1,1.3,92,0.00,,,0.00,VWS V14.01,2013-10-20 07:14:00,
2013-10-20 03:15:00,38.3,36.2,29.90,SE,135,0.4,0.4,92,0.00,,,0.00,VWS V14.01,2013-10-20 07:15:00,
2013-10-20 03:16:00,38.3,35.6,29.90,North,0,0.9,0.9,90,0.00,,,0.00,VWS V14.01,2013-10-20 07:16:00,
2013-10-20 03:18:00,38.2,35.8,29.90,WNW,292,0.0,1.3,91,0.00,,,0.00,VWS V14.01,2013-10-20 07:18:00,
2013-10-20 03:19:00,38.2,35.8,29.90,SSW,202,1.1,1.1,91,0.00,,,0.00,VWS V14.01,2013-10-20 07:19:00,
2013-10-20 03:20:00,38.2,35.8,29.90,SSW,202,1.1,1.1,91,0.00,,,0.00,VWS V14.01,2013-10-20 07:20:00,
2013-10-20 03:21:00,38.0,35.9,29.91,SW,225,0.0,0.0,92,0.00,,,0.00,VWS V14.01,2013-10-20 07:21:00,
2013-10-20 03:22:00,38.0,35.6,29.90,NW,315,0.2,0.2,91,0.00,,,0.00,VWS V14.01,2013-10-20 07:22:00,
2013-10-20 03:24:00,37.8,35.4,29.90,West,270,0.4,0.4,91,0.00,,,0.00,VWS V14.01,2013-10-20 07:24:00,
2013-10-20 03:25:00,37.8,35.7,29.90,WNW,292,0.7,0.7,92,0.00,,,0.00,VWS V14.01,2013-10-20 07:25:00,
2013-10-20 03:26:00,37.8,35.7,29.90,WNW,292,0.7,0.7,92,0.00,,,0.00,VWS V14.01,2013-10-20 07:26:00,
2013-10-20 03:27:00,37.8,35.7,29.90,WNW,292,0.7,0.7,92,0.00,,,0.00,VWS V14.01,2013-10-20 07:27:00,
2013-10-20 03:28:00,37.8,35.4,29.90,NNW,338,1.8,1.8,91,0.00,,,0.00,VWS V14.01,2013-10-20 07:28:00,
2013-10-20 03:29:00,37.8,35.7,29.90,West,270,1.8,1.8,92,0.00,,,0.00,VWS V14.01,2013-10-20 07:29:00,
2013-10-20 03:30:00,37.8,35.7,29.91,West,270,1.8,1.8,92,0.00,,,0.00,VWS V14.01,2013-10-20 07:30:00,
2013-10-20 03:31:00,37.6,35.5,29.90,West,270,0.0,1.8,92,0.00,,,0.00,VWS V14.01,2013-10-20 07:31:00,
2013-10-20 03:32:00,37.6,35.5,29.90,West,270,0.0,1.8,92,0.00,,,0.00,VWS V14.01,2013-10-20 07:32:00,
2013-10-20 03:34:00,37.6,35.5,29.90,West,270,0.0,0.0,92,0.00,,,0.00,VWS V14.01,2013-10-20 07:34:00,
2013-10-20 03:35:00,37.4,35.3,29.91,WNW,292,0.0,0.0,92,0.00,,,0.00,VWS V14.01,2013-10-20 07:35:00,
2013-10-20 03:36:00,37.4,35.3,29.91,WNW,292,0.0,0.0,92,0.00,,,0.00,VWS V14.01,2013-10-20 07:36:00,
2013-10-20 03:37:00,37.4,35.0,29.90,WNW,292,0.0,0.0,91,0.00,,,0.00,VWS V14.01,2013-10-20 07:37:00,
2013-10-20 03:38:00,37.4,34.7,29.91,NNW,338,0.4,0.4,90,0.00,,,0.00,VWS V14.01,2013-10-20 07:38:00,
2013-10-20 03:40:00,37.4,34.7,29.91,NNE,22,0.4,0.4,90,0.00,,,0.00,VWS V14.01,2013-10-20 07:40:00,
2013-10-20 03:41:00,37.4,34.7,29.91,NNE,22,0.4,0.4,90,0.00,,,0.00,VWS V14.01,2013-10-20 07:41:00,
2013-10-20 03:42:00,37.4,34.7,29.91,NNE,22,0.4,0.4,90,0.00,,,0.00,VWS V14.01,2013-10-20 07:42:00,
2013-10-20 03:44:00,37.6,35.2,29.91,NNW,338,0.0,0.4,91,0.00,,,0.00,VWS V14.01,2013-10-20 07:44:00,
2013-10-20 03:45:00,37.6,35.2,29.91,NNW,338,0.0,0.0,91,0.00,,,0.00,VWS V14.01,2013-10-20 07:45:00,
2013-10-20 03:46:00,37.6,35.2,29.91,NNW,338,0.0,0.0,91,0.00,,,0.00,VWS V14.01,2013-10-20 07:46:00,
2013-10-20 03:47:00,37.6,35.5,29.90,NW,315,1.1,1.1,92,0.00,,,0.00,VWS V14.01,2013-10-20 07:47:00,
2013-10-20 03:48:00,37.6,35.5,29.90,NW,315,1.1,1.1,92,0.00,,,0.00,VWS V14.01,2013-10-20 07:48:00,
2013-10-20 03:50:00,37.6,35.8,29.91,SW,225,0.0,0.9,93,0.00,,,0.00,VWS V14.01,2013-10-20 07:50:00,
2013-10-20 03:51:00,37.6,35.5,29.91,SW,225,0.0,0.0,92,0.00,,,0.00,VWS V14.01,2013-10-20 07:51:00,
2013-10-20 03:52:00,37.6,35.5,29.91,NW,315,1.1,1.1,92,0.00,,,0.00,VWS V14.01,2013-10-20 07:52:00,
2013-10-20 03:53:00,37.6,35.5,29.91,NW,315,1.1,1.1,92,0.00,,,0.00,VWS V14.01,2013-10-20 07:53:00,
2013-10-20 03:54:00,37.4,35.6,29.91,NW,315,0.9,1.1,93,0.00,,,0.00,VWS V14.01,2013-10-20 07:54:00,
2013-10-20 03:55:00,37.4,35.6,29.91,NW,315,0.9,0.9,93,0.00,,,0.00,VWS V14.01,2013-10-20 07:55:00,
2013-10-20 03:56:00,37.4,35.6,29.91,West,270,1.1,1.1,93,0.00,,,0.00,VWS V14.01,2013-10-20 07:56:00,
2013-10-20 03:57:00,37.4,35.6,29.91,West,270,1.1,1.1,93,0.00,,,0.00,VWS V14.01,2013-10-20 07:57:00,
2013-10-20 03:58:00,37.4,35.6,29.91,WSW,248,0.4,1.1,93,0.00,,,0.00,VWS V14.01,2013-10-20 07:58:00,
2013-10-20 04:00:00,37.4,35.6,29.91,WSW,248,0.0,0.0,93,0.00,,,0.00,VWS V14.01,2013-10-20 08:00:00,
2013-10-20 04:02:00,37.4,35.6,29.91,WSW,248,0.0,0.0,93,0.00,,,0.00,VWS V14.01,2013-10-20 08:02:00,
2013-10-20 04:03:00,37.4,35.6,29.91,NNW,338,0.4,0.4,93,0.00,,,0.00,VWS V14.01,2013-10-20 08:03:00,
2013-10-20 04:04:00,37.3,35.2,29.91,NNW,338,0.4,0.4,92,0.00,,,0.00,VWS V14.01,2013-10-20 08:04:00,
2013-10-20 04:05:00,37.3,35.5,29.91,WNW,292,0.0,0.4,93,0.00,,,0.00,VWS V14.01,2013-10-20 08:05:00,
2013-10-20 04:06:00,37.3,35.5,29.91,WNW,292,0.4,0.4,93,0.00,,,0.00,VWS V14.01,2013-10-20 08:06:00,
2013-10-20 04:07:00,37.3,35.5,29.91,WNW,292,0.4,0.4,93,0.00,,,0.00,VWS V14.01,2013-10-20 08:07:00,
2013-10-20 04:08:00,37.1,35.3,29.91,NW,315,0.7,0.7,93,0.00,,,0.00,VWS V14.01,2013-10-20 08:08:00,
2013-10-20 04:09:00,37.1,35.3,29.91,NW,315,0.9,0.9,93,0.00,,,0.00,VWS V14.01,2013-10-20 08:09:00,
2013-10-20 04:10:00,37.1,35.3,29.91,NW,315,1.1,1.1,93,0.00,,,0.00,VWS V14.01,2013-10-20 08:10:00,
2013-10-20 04:11:00,37.1,35.3,29.91,NW,315,1.1,1.1,93,0.00,,,0.00,VWS V14.01,2013-10-20 08:11:00,
2013-10-20 04:12:00,37.1,35.5,29.91,West,270,1.1,1.1,94,0.00,,,0.00,VWS V14.01,2013-10-20 08:12:00,
2013-10-20 04:13:00,37.1,35.5,29.91,West,270,0.4,1.1,94,0.00,,,0.00,VWS V14.01,2013-10-20 08:13:00,
2013-10-20 04:14:00,37.1,35.5,29.91,West,270,0.4,1.1,94,0.00,,,0.00,VWS V14.01,2013-10-20 08:14:00,
2013-10-20 04:16:00,37.1,35.5,29.91,West,270,1.1,1.1,94,0.00,,,0.00,VWS V14.01,2013-10-20 08:16:00,
2013-10-20 04:17:00,37.3,35.7,29.91,WNW,292,1.1,1.1,94,0.00,,,0.00,VWS V14.01,2013-10-20 08:17:00,
2013-10-20 04:18:00,37.3,35.7,29.91,WNW,292,1.1,1.1,94,0.00,,,0.00,VWS V14.01,2013-10-20 08:18:00,
2013-10-20 04:19:00,37.3,35.7,29.91,WNW,292,1.1,1.1,94,0.00,,,0.00,VWS V14.01,2013-10-20 08:19:00,
2013-10-20 04:20:00,37.3,35.7,29.91,West,270,0.7,1.1,94,0.00,,,0.00,VWS V14.01,2013-10-20 08:20:00,
2013-10-20 04:21:00,37.3,35.7,29.91,West,270,0.7,0.7,94,0.00,,,0.00,VWS V14.01,2013-10-20 08:21:00,
2013-10-20 04:22:00,37.3,35.7,29.91,WNW,292,0.0,0.0,94,0.00,,,0.00,VWS V14.01,2013-10-20 08:22:00,
2013-10-20 04:23:00,37.3,35.7,29.91,WNW,292,0.0,0.0,94,0.00,,,0.00,VWS V14.01,2013-10-20 08:23:00,
2013-10-20 04:24:00,37.3,35.7,29.91,WSW,248,0.4,0.4,94,0.00,,,0.00,VWS V14.01,2013-10-20 08:24:00,
2013-10-20 04:26:00,37.3,35.7,29.91,West,270,0.7,0.7,94,0.00,,,0.00,VWS V14.01,2013-10-20 08:26:00,
2013-10-20 04:28:00,37.1,35.5,29.91,North,0,0.0,0.0,94,0.00,,,0.00,VWS V14.01,2013-10-20 08:28:00,
2013-10-20 04:29:00,37.1,35.5,29.91,North,0,0.0,0.0,94,0.00,,,0.00,VWS V14.01,2013-10-20 08:29:00,
2013-10-20 04:30:00,37.1,35.5,29.92,North,0,0.0,0.0,94,0.00,,,0.00,VWS V14.01,2013-10-20 08:30:00,
2013-10-20 04:31:00,37.1,35.5,29.91,WNW,292,0.9,0.9,94,0.00,,,0.00,VWS V14.01,2013-10-20 08:31:00,
2013-10-20 04:32:00,37.1,35.5,29.91,West,270,0.4,0.9,94,0.00,,,0.00,VWS V14.01,2013-10-20 08:32:00,
2013-10-20 04:33:00,37.1,35.5,29.91,West,270,0.4,0.4,94,0.00,,,0.00,VWS V14.01,2013-10-20 08:33:00,
2013-10-20 04:34:00,37.1,35.5,29.91,West,270,0.4,0.4,94,0.00,,,0.00,VWS V14.01,2013-10-20 08:34:00,
2013-10-20 04:35:00,36.9,35.3,29.91,NW,315,0.0,0.0,94,0.00,,,0.00,VWS V14.01,2013-10-20 08:35:00,
2013-10-20 04:36:00,36.9,35.1,29.91,NW,315,0.0,0.0,93,0.00,,,0.00,VWS V14.01,2013-10-20 08:36:00,
2013-10-20 04:38:00,36.7,35.1,29.91,WNW,292,0.4,0.4,94,0.00,,,0.00,VWS V14.01,2013-10-20 08:38:00,
2013-10-20 04:39:00,36.7,35.1,29.91,WNW,292,0.4,0.4,94,0.00,,,0.00,VWS V14.01,2013-10-20 08:39:00,
2013-10-20 04:40:00,36.7,35.1,29.91,WNW,292,0.0,0.4,94,0.00,,,0.00,VWS V14.01,2013-10-20 08:40:00,
2013-10-20 04:41:00,36.7,35.1,29.91,West,270,0.0,0.0,94,0.00,,,0.00,VWS V14.01,2013-10-20 08:41:00,
2013-10-20 04:42:00,36.7,35.1,29.91,West,270,0.0,0.0,94,0.00,,,0.00,VWS V14.01,2013-10-20 08:42:00,
2013-10-20 04:44:00,36.7,35.1,29.91,West,270,0.0,0.0,94,0.00,,,0.00,VWS V14.01,2013-10-20 08:44:00,
2013-10-20 04:45:00,36.7,35.1,29.92,West,270,0.0,0.0,94,0.00,,,0.00,VWS V14.01,2013-10-20 08:45:00,
2013-10-20 04:46:00,36.7,35.1,29.91,NW,315,0.4,0.4,94,0.00,,,0.00,VWS V14.01,2013-10-20 08:46:00,
2013-10-20 04:48:00,36.5,34.9,29.91,NW,315,0.2,0.4,94,0.00,,,0.00,VWS V14.01,2013-10-20 08:48:00,
2013-10-20 04:49:00,36.5,34.9,29.92,NW,315,0.2,0.2,94,0.00,,,0.00,VWS V14.01,2013-10-20 08:49:00,
2013-10-20 04:50:00,36.5,34.9,29.92,NW,315,0.2,0.2,94,0.00,,,0.00,VWS V14.01,2013-10-20 08:50:00,
2013-10-20 04:51:00,36.5,34.9,29.91,WNW,292,0.4,0.4,94,0.00,,,0.00,VWS V14.01,2013-10-20 08:51:00,
2013-10-20 04:52:00,36.5,34.9,29.92,WNW,292,0.4,0.4,94,0.00,,,0.00,VWS V14.01,2013-10-20 08:52:00,
2013-10-20 04:54:00,36.5,34.9,29.91,WNW,292,0.0,0.4,94,0.00,,,0.00,VWS V14.01,2013-10-20 08:54:00,
2013-10-20 04:55:00,36.5,34.9,29.91,WNW,292,0.0,0.0,94,0.00,,,0.00,VWS V14.01,2013-10-20 08:55:00,
2013-10-20 04:56:00,36.5,34.9,29.91,WNW,292,0.0,0.0,94,0.00,,,0.00,VWS V14.01,2013-10-20 08:56:00,
2013-10-20 04:57:00,36.5,34.9,29.92,WNW,292,0.0,0.0,94,0.00,,,0.00,VWS V14.01,2013-10-20 08:57:00,
2013-10-20 04:58:00,36.5,34.9,29.92,WNW,292,0.0,0.0,94,0.00,,,0.00,VWS V14.01,2013-10-20 08:58:00,
2013-10-20 05:00:00,36.5,34.9,29.92,WNW,292,0.0,0.0,94,0.00,,,0.00,VWS V14.01,2013-10-20 09:00:00,
2013-10-20 05:01:00,36.4,34.8,29.92,WNW,292,0.0,0.0,94,0.00,,,0.00,VWS V14.01,2013-10-20 09:01:00,
2013-10-20 05:02:00,36.4,34.8,29.92,WNW,292,0.0,0.0,94,0.00,,,0.00,VWS V14.01,2013-10-20 09:02:00,
2013-10-20 05:04:00,36.4,34.8,29.92,NW,315,0.0,0.0,94,0.00,,,0.00,VWS V14.01,2013-10-20 09:04:00,
2013-10-20 05:05:00,36.4,34.6,29.92,NNW,338,0.0,0.0,93,0.00,,,0.00,VWS V14.01,2013-10-20 09:05:00,
2013-10-20 05:06:00,36.4,34.6,29.92,NNW,338,0.0,0.0,93,0.00,,,0.00,VWS V14.01,2013-10-20 09:06:00,
2013-10-20 05:07:00,36.4,34.6,29.92,NNW,338,0.0,0.0,93,0.00,,,0.00,VWS V14.01,2013-10-20 09:07:00,
2013-10-20 05:08:00,36.4,34.6,29.92,NNW,338,0.0,0.0,93,0.00,,,0.00,VWS V14.01,2013-10-20 09:08:00,
2013-10-20 05:10:00,36.2,34.4,29.92,NNW,338,0.0,0.0,93,0.00,,,0.00,VWS V14.01,2013-10-20 09:10:00,
2013-10-20 05:11:00,36.2,34.4,29.92,NNW,338,0.0,0.0,93,0.00,,,0.00,VWS V14.01,2013-10-20 09:11:00,
2013-10-20 05:12:00,36.2,34.6,29.92,NNW,338,0.0,0.0,94,0.00,,,0.00,VWS V14.01,2013-10-20 09:12:00,
2013-10-20 05:14:00,36.4,34.8,29.92,NW,315,0.9,0.9,94,0.00,,,0.00,VWS V14.01,2013-10-20 09:14:00,
2013-10-20 05:15:00,36.4,34.8,29.92,NW,315,0.9,0.9,94,0.00,,,0.00,VWS V14.01,2013-10-20 09:15:00,
2013-10-20 05:16:00,36.4,34.8,29.92,West,270,0.4,0.4,94,0.00,,,0.00,VWS V14.01,2013-10-20 09:16:00,
2013-10-20 05:17:00,36.4,34.8,29.92,West,270,0.4,0.4,94,0.00,,,0.00,VWS V14.01,2013-10-20 09:17:00,
2013-10-20 05:18:00,36.4,34.8,29.92,West,270,0.4,0.4,94,0.00,,,0.00,VWS V14.01,2013-10-20 09:18:00,
2013-10-20 05:20:00,36.4,34.8,29.92,West,270,0.0,0.0,94,0.00,,,0.00,VWS V14.01,2013-10-20 09:20:00,
2013-10-20 05:21:00,36.4,34.8,29.92,West,270,0.0,0.0,94,0.00,,,0.00,VWS V14.01,2013-10-20 09:21:00,
2013-10-20 05:22:00,36.4,34.8,29.92,West,270,0.0,0.0,94,0.00,,,0.00,VWS V14.01,2013-10-20 09:22:00,
2013-10-20 05:23:00,36.4,34.8,29.92,West,270,0.0,0.0,94,0.00,,,0.00,VWS V14.01,2013-10-20 09:23:00,
2013-10-20 05:24:00,36.4,34.8,29.92,West,270,0.0,0.0,94,0.00,,,0.00,VWS V14.01,2013-10-20 09:24:00,
2013-10-20 05:26:00,36.4,34.8,29.93,West,270,0.4,0.4,94,0.00,,,0.00,VWS V14.01,2013-10-20 09:26:00,
2013-10-20 05:27:00,36.4,34.8,29.92,West,270,0.0,0.0,94,0.00,,,0.00,VWS V14.01,2013-10-20 09:27:00,
2013-10-20 05:28:00,36.4,34.8,29.92,West,270,0.0,0.0,94,0.00,,,0.00,VWS V14.01,2013-10-20 09:28:00,
2013-10-20 05:30:00,36.4,34.8,29.93,WNW,292,0.0,0.0,94,0.00,,,0.00,VWS V14.01,2013-10-20 09:30:00,
2013-10-20 05:31:00,36.4,34.8,29.93,WNW,292,0.0,0.0,94,0.00,,,0.00,VWS V14.01,2013-10-20 09:31:00,
2013-10-20 05:32:00,36.4,34.8,29.93,WNW,292,0.0,0.0,94,0.00,,,0.00,VWS V14.01,2013-10-20 09:32:00,
2013-10-20 05:33:00,36.4,34.8,29.93,WNW,292,0.0,0.0,94,0.00,,,0.00,VWS V14.01,2013-10-20 09:33:00,
2013-10-20 05:34:00,36.4,34.8,29.92,WNW,292,0.0,0.0,94,0.00,,,0.00,VWS V14.01,2013-10-20 09:34:00,
2013-10-20 05:36:00,36.4,34.8,29.93,West,270,0.0,0.0,94,0.00,,,0.00,VWS V14.01,2013-10-20 09:36:00,
2013-10-20 05:37:00,36.4,34.8,29.93,NW,315,0.0,0.0,94,0.00,,,0.00,VWS V14.01,2013-10-20 09:37:00,
2013-10-20 05:38:00,36.4,34.8,29.93,NW,315,0.0,0.0,94,0.00,,,0.00,VWS V14.01,2013-10-20 09:38:00,
2013-10-20 05:39:00,36.4,34.8,29.93,NW,315,0.0,0.0,94,0.00,,,0.00,VWS V14.01,2013-10-20 09:39:00,
2013-10-20 05:40:00,36.4,34.8,29.93,West,270,0.7,0.7,94,0.00,,,0.00,VWS V14.01,2013-10-20 09:40:00,
2013-10-20 05:41:00,36.4,34.8,29.93,West,270,0.7,0.7,94,0.00,,,0.00,VWS V14.01,2013-10-20 09:41:00,
2013-10-20 05:42:00,36.4,34.8,29.92,West,270,0.2,0.7,94,0.00,,,0.00,VWS V14.01,2013-10-20 09:42:00,
2013-10-20 05:43:00,36.4,34.8,29.92,WNW,292,0.7,0.7,94,0.00,,,0.00,VWS V14.01,2013-10-20 09:43:00,
2013-10-20 05:44:00,36.4,34.8,29.93,WNW,292,0.0,0.0,94,0.00,,,0.00,VWS V14.01,2013-10-20 09:44:00,
2013-10-20 05:45:00,36.4,34.8,29.93,WNW,292,0.0,0.0,94,0.00,,,0.00,VWS V14.01,2013-10-20 09:45:00,
2013-10-20 05:46:00,36.4,34.8,29.93,WNW,292,0.0,0.0,94,0.00,,,0.00,VWS V14.01,2013-10-20 09:46:00,
2013-10-20 05:47:00,36.4,34.8,29.93,WNW,292,0.0,0.0,94,0.00,,,0.00,VWS V14.01,2013-10-20 09:47:00,
2013-10-20 05:48:00,36.4,34.8,29.93,WNW,292,0.0,0.0,94,0.00,,,0.00,VWS V14.01,2013-10-20 09:48:00,
2013-10-20 05:49:00,36.4,34.8,29.93,WNW,292,0.0,0.0,94,0.00,,,0.00,VWS V14.01,2013-10-20 09:49:00,
2013-10-20 05:50:00,36.4,34.8,29.93,WNW,292,0.0,0.0,94,0.00,,,0.00,VWS V14.01,2013-10-20 09:50:00,
2013-10-20 05:51:00,36.4,34.8,29.93,WNW,292,0.0,0.0,94,0.00,,,0.00,VWS V14.01,2013-10-20 09:51:00,
2013-10-20 05:52:00,36.4,34.8,29.93,WNW,292,0.0,0.0,94,0.00,,,0.00,VWS V14.01,2013-10-20 09:52:00,
2013-10-20 05:53:00,36.4,34.8,29.93,WNW,292,0.0,0.0,94,0.00,,,0.00,VWS V14.01,2013-10-20 09:53:00,
2013-10-20 05:54:00,36.2,34.6,29.93,WNW,292,0.0,0.0,94,0.00,,,0.00,VWS V14.01,2013-10-20 09:54:00,
2013-10-20 05:56:00,36.2,34.6,29.93,WNW,292,0.0,0.0,94,0.00,,,0.00,VWS V14.01,2013-10-20 09:56:00,
2013-10-20 05:57:00,36.2,34.6,29.93,WNW,292,0.0,0.0,94,0.00,,,0.00,VWS V14.01,2013-10-20 09:57:00,
2013-10-20 05:58:00,36.0,34.4,29.93,NW,315,0.0,0.0,94,0.00,,,0.00,VWS V14.01,2013-10-20 09:58:00,
2013-10-20 05:59:00,36.0,34.4,29.93,WNW,292,0.0,0.0,94,0.00,,,0.00,VWS V14.01,2013-10-20 09:59:00,
2013-10-20 06:00:00,36.0,34.4,29.93,WNW,292,0.0,0.0,94,0.00,,,0.00,VWS V14.01,2013-10-20 10:00:00,
2013-10-20 06:01:00,36.0,34.4,29.93,WNW,292,0.0,0.0,94,0.00,,,0.00,VWS V14.01,2013-10-20 10:01:00,
2013-10-20 06:02:00,36.0,34.4,29.93,NW,315,1.8,1.8,94,0.00,,,0.00,VWS V14.01,2013-10-20 10:02:00,
2013-10-20 06:03:00,36.0,34.4,29.93,NW,315,1.1,1.8,94,0.00,,,0.00,VWS V14.01,2013-10-20 10:03:00,
2013-10-20 06:04:00,36.0,34.4,29.93,NW,315,1.8,1.8,94,0.00,,,0.00,VWS V14.01,2013-10-20 10:04:00,
2013-10-20 06:06:00,36.0,34.4,29.93,NW,315,1.1,1.8,94,0.00,,,0.00,VWS V14.01,2013-10-20 10:06:00,
2013-10-20 06:07:00,36.0,34.4,29.93,NW,315,1.1,1.1,94,0.00,,,0.00,VWS V14.01,2013-10-20 10:07:00,
2013-10-20 06:08:00,35.8,34.2,29.93,West,270,0.0,0.0,94,0.00,,,0.00,VWS V14.01,2013-10-20 10:08:00,
2013-10-20 06:09:00,35.8,34.2,29.93,West,270,0.0,0.0,94,0.00,,,0.00,VWS V14.01,2013-10-20 10:09:00,
2013-10-20 06:10:00,35.8,34.2,29.93,West,270,0.0,0.0,94,0.00,,,0.00,VWS V14.01,2013-10-20 10:10:00,
2013-10-20 06:12:00,35.8,34.2,29.93,West,270,0.0,0.0,94,0.00,,,0.00,VWS V14.01,2013-10-20 10:12:00,
2013-10-20 06:13:00,35.8,34.2,29.93,West,270,0.0,0.0,94,0.00,,,0.00,VWS V14.01,2013-10-20 10:13:00,
2013-10-20 06:14:00,35.6,34.0,29.93,West,270,0.0,0.0,94,0.00,,,0.00,VWS V14.01,2013-10-20 10:14:00,
2013-10-20 06:16:00,35.6,34.0,29.93,East,90,0.0,0.0,94,0.00,,,0.00,VWS V14.01,2013-10-20 10:16:00,
2013-10-20 06:17:00,35.3,33.8,29.93,East,90,0.4,0.4,94,0.00,,,0.00,VWS V14.01,2013-10-20 10:17:00,
2013-10-20 06:18:00,35.3,33.8,29.93,East,90,0.4,0.4,94,0.00,,,0.00,VWS V14.01,2013-10-20 10:18:00,
2013-10-20 06:19:00,35.3,33.8,29.93,East,90,0.4,0.4,94,0.00,,,0.00,VWS V14.01,2013-10-20 10:19:00,
2013-10-20 06:20:00,35.1,33.5,29.93,ESE,112,0.2,0.4,94,0.00,,,0.00,VWS V14.01,2013-10-20 10:20:00,
2013-10-20 06:22:00,34.7,33.2,29.93,ESE,112,0.0,0.2,94,0.00,,,0.00,VWS V14.01,2013-10-20 10:22:00,
2013-10-20 06:23:00,34.7,33.2,29.93,ESE,112,0.0,0.0,94,0.00,,,0.00,VWS V14.01,2013-10-20 10:23:00,
2013-10-20 06:24:00,34.6,33.0,29.93,ESE,112,0.0,0.0,94,0.00,,,0.00,VWS V14.01,2013-10-20 10:24:00,
2013-10-20 06:25:00,34.6,33.0,29.93,ESE,112,0.0,0.0,94,0.00,,,0.00,VWS V14.01,2013-10-20 10:25:00,
2013-10-20 06:28:00,34.2,32.4,29.94,East,90,0.0,0.0,93,0.00,,,0.00,VWS V14.01,2013-10-20 10:28:00,
2013-10-20 06:29:00,34.2,32.4,29.94,East,90,0.0,0.0,93,0.00,,,0.00,VWS V14.01,2013-10-20 10:29:00,
2013-10-20 06:30:00,34.2,32.4,29.93,NE,45,0.0,0.0,93,0.00,,,0.00,VWS V14.01,2013-10-20 10:30:00,
2013-10-20 06:33:00,34.2,32.7,29.94,SSW,202,0.9,0.9,94,0.00,,,0.00,VWS V14.01,2013-10-20 10:33:00,
2013-10-20 06:34:00,34.2,32.7,29.94,SSW,202,0.9,0.9,94,0.00,,,0.00,VWS V14.01,2013-10-20 10:34:00,
2013-10-20 06:35:00,34.2,32.7,29.94,SSW,202,0.9,0.9,94,0.00,,,0.00,VWS V14.01,2013-10-20 10:35:00,
2013-10-20 06:36:00,34.0,32.5,29.94,East,90,0.0,0.9,94,0.00,,,0.00,VWS V14.01,2013-10-20 10:36:00,
2013-10-20 06:38:00,34.0,32.2,29.94,ENE,68,0.0,0.0,93,0.00,,,0.00,VWS V14.01,2013-10-20 10:38:00,
2013-10-20 06:39:00,34.0,32.2,29.94,ENE,68,0.0,0.0,93,0.00,,,0.00,VWS V14.01,2013-10-20 10:39:00,
2013-10-20 06:40:00,34.0,32.2,29.94,ENE,68,0.0,0.0,93,0.00,,,0.00,VWS V14.01,2013-10-20 10:40:00,
2013-10-20 06:42:00,34.0,32.5,29.94,ENE,68,0.0,0.4,94,0.00,,,0.00,VWS V14.01,2013-10-20 10:42:00,
2013-10-20 06:43:00,34.0,32.5,29.94,ENE,68,0.0,0.0,94,0.00,,,0.00,VWS V14.01,2013-10-20 10:43:00,
2013-10-20 06:44:00,34.0,32.5,29.94,ENE,68,0.0,0.0,94,0.00,,,0.00,VWS V14.01,2013-10-20 10:44:00,
2013-10-20 06:45:00,34.0,32.5,29.94,ENE,68,0.0,0.0,94,0.00,,,0.00,VWS V14.01,2013-10-20 10:45:00,
2013-10-20 06:46:00,34.0,32.2,29.94,ENE,68,0.0,0.0,93,0.00,,,0.00,VWS V14.01,2013-10-20 10:46:00,
2013-10-20 06:48:00,33.8,32.0,29.94,ENE,68,0.0,0.0,93,0.00,,,0.00,VWS V14.01,2013-10-20 10:48:00,
2013-10-20 06:49:00,33.8,32.0,29.94,ENE,68,0.0,0.0,93,0.00,,,0.00,VWS V14.01,2013-10-20 10:49:00,
2013-10-20 06:50:00,33.8,32.0,29.94,East,90,0.0,0.0,93,0.00,,,0.00,VWS V14.01,2013-10-20 10:50:00,
2013-10-20 06:51:00,33.8,32.0,29.94,East,90,0.0,0.0,93,0.00,,,0.00,VWS V14.01,2013-10-20 10:51:00,
2013-10-20 06:52:00,33.8,32.3,29.94,SE,135,0.0,0.0,94,0.00,,,0.00,VWS V14.01,2013-10-20 10:52:00,
2013-10-20 06:54:00,33.7,32.2,29.94,ENE,68,0.0,0.0,94,0.00,,,0.00,VWS V14.01,2013-10-20 10:54:00,
2013-10-20 06:55:00,33.7,32.2,29.94,ENE,68,0.0,0.0,94,0.00,,,0.00,VWS V14.01,2013-10-20 10:55:00,
2013-10-20 06:56:00,33.7,31.9,29.94,NNE,22,0.0,0.0,93,0.00,,,0.00,VWS V14.01,2013-10-20 10:56:00,
2013-10-20 06:58:00,33.5,31.4,29.94,NE,45,0.0,0.0,92,0.00,,,0.00,VWS V14.01,2013-10-20 10:58:00,
2013-10-20 07:00:00,33.5,31.7,29.94,NE,45,0.0,0.0,93,0.00,,,0.00,VWS V14.01,2013-10-20 11:00:00,
2013-10-20 07:01:00,33.5,31.7,29.94,NE,45,0.0,0.0,93,0.00,,,0.00,VWS V14.01,2013-10-20 11:01:00,
2013-10-20 07:02:00,33.5,31.7,29.94,NE,45,0.0,0.0,93,0.00,,,0.00,VWS V14.01,2013-10-20 11:02:00,
2013-10-20 07:04:00,33.3,31.5,29.94,NE,45,0.0,0.0,93,0.00,,,0.00,VWS V14.01,2013-10-20 11:04:00,
2013-10-20 07:05:00,33.3,31.5,29.94,NE,45,0.0,0.0,93,0.00,,,0.00,VWS V14.01,2013-10-20 11:05:00,
2013-10-20 07:06:00,33.3,31.5,29.94,NE,45,0.0,0.0,93,0.00,,,0.00,VWS V14.01,2013-10-20 11:06:00,
2013-10-20 07:08:00,33.1,31.0,29.94,NE,45,0.0,0.0,92,0.00,,,0.00,VWS V14.01,2013-10-20 11:08:00,
2013-10-20 07:10:00,32.9,30.8,29.94,NE,45,0.0,0.0,92,0.00,,,0.00,VWS V14.01,2013-10-20 11:10:00,
2013-10-20 07:11:00,32.8,30.7,29.94,NE,45,0.0,0.0,92,0.00,,,0.00,VWS V14.01,2013-10-20 11:11:00,
2013-10-20 07:12:00,32.8,30.7,29.94,NE,45,0.0,0.0,92,0.00,,,0.00,VWS V14.01,2013-10-20 11:12:00,
2013-10-20 07:14:00,32.8,30.7,29.94,NE,45,0.0,0.0,92,0.00,,,0.00,VWS V14.01,2013-10-20 11:14:00,
2013-10-20 07:15:00,32.8,30.7,29.94,NE,45,0.0,0.0,92,0.00,,,0.00,VWS V14.01,2013-10-20 11:15:00,
2013-10-20 07:16:00,32.8,30.7,29.94,NE,45,0.0,0.0,92,0.00,,,0.00,VWS V14.01,2013-10-20 11:16:00,
2013-10-20 07:17:00,32.8,30.7,29.94,NE,45,0.0,0.0,92,0.00,,,0.00,VWS V14.01,2013-10-20 11:17:00,
2013-10-20 07:18:00,32.8,30.7,29.94,NE,45,0.0,0.0,92,0.00,,,0.00,VWS V14.01,2013-10-20 11:18:00,
2013-10-20 07:20:00,32.6,30.5,29.94,NE,45,0.0,0.0,92,0.00,,,0.00,VWS V14.01,2013-10-20 11:20:00,
2013-10-20 07:21:00,32.6,30.5,29.94,NE,45,0.0,0.0,92,0.00,,,0.00,VWS V14.01,2013-10-20 11:21:00,
2013-10-20 07:22:00,32.6,30.5,29.94,NE,45,0.0,0.0,92,0.00,,,0.00,VWS V14.01,2013-10-20 11:22:00,
2013-10-20 07:24:00,32.6,30.5,29.94,NE,45,0.0,0.0,92,0.00,,,0.00,VWS V14.01,2013-10-20 11:24:00,
2013-10-20 07:26:00,32.4,30.3,29.94,NE,45,0.0,0.0,92,0.00,,,0.00,VWS V14.01,2013-10-20 11:26:00,
2013-10-20 07:27:00,32.2,30.1,29.94,NE,45,0.0,0.0,92,0.00,,,0.00,VWS V14.01,2013-10-20 11:27:00,
2013-10-20 07:28:00,32.2,30.1,29.94,NE,45,0.0,0.0,92,0.00,,,0.00,VWS V14.01,2013-10-20 11:28:00,
2013-10-20 07:30:00,32.4,30.6,29.94,NNE,22,0.0,0.0,93,0.00,,,0.00,VWS V14.01,2013-10-20 11:30:00,
2013-10-20 07:31:00,32.4,30.6,29.94,NNE,22,0.0,0.0,93,0.00,,,0.00,VWS V14.01,2013-10-20 11:31:00,
2013-10-20 07:32:00,32.4,30.6,29.94,NNE,22,0.0,0.0,93,0.00,,,0.00,VWS V14.01,2013-10-20 11:32:00,
2013-10-20 07:33:00,32.4,30.6,29.94,NNE,22,0.0,0.0,93,0.00,,,0.00,VWS V14.01,2013-10-20 11:33:00,
2013-10-20 07:34:00,32.6,30.8,29.94,NNE,22,0.0,0.0,93,0.00,,,0.00,VWS V14.01,2013-10-20 11:34:00,
2013-10-20 07:35:00,32.6,30.8,29.94,NNE,22,0.0,0.0,93,0.00,,,0.00,VWS V14.01,2013-10-20 11:35:00,
2013-10-20 07:36:00,32.6,30.8,29.94,NNE,22,0.0,0.0,93,0.00,,,0.00,VWS V14.01,2013-10-20 11:36:00,
2013-10-20 07:37:00,32.6,30.8,29.94,NNE,22,0.0,0.0,93,0.00,,,0.00,VWS V14.01,2013-10-20 11:37:00,
2013-10-20 07:38:00,32.6,30.8,29.94,NNE,22,0.0,0.0,93,0.00,,,0.00,VWS V14.01,2013-10-20 11:38:00,
2013-10-20 07:40:00,32.6,30.5,29.94,NNE,22,0.0,0.0,92,0.00,,,0.00,VWS V14.01,2013-10-20 11:40:00,
2013-10-20 07:41:00,32.6,30.5,29.94,NNE,22,0.0,0.0,92,0.00,,,0.00,VWS V14.01,2013-10-20 11:41:00,
2013-10-20 07:42:00,32.4,30.3,29.94,NNE,22,0.0,0.0,92,0.00,,,0.00,VWS V14.01,2013-10-20 11:42:00,
2013-10-20 07:43:00,32.4,30.3,29.94,NNE,22,0.0,0.0,92,0.00,,,0.00,VWS V14.01,2013-10-20 11:43:00,
2013-10-20 07:44:00,32.4,30.3,29.95,NNE,22,0.0,0.0,92,0.00,,,0.00,VWS V14.01,2013-10-20 11:44:00,
2013-10-20 07:46:00,32.4,30.6,29.95,NNE,22,0.0,0.0,93,0.00,,,0.00,VWS V14.01,2013-10-20 11:46:00,
2013-10-20 07:47:00,32.4,30.6,29.95,NNE,22,0.0,0.0,93,0.00,,,0.00,VWS V14.01,2013-10-20 11:47:00,
2013-10-20 07:48:00,32.4,30.6,29.95,NNE,22,0.0,0.0,93,0.00,,,0.00,VWS V14.01,2013-10-20 11:48:00,
2013-10-20 07:49:00,32.4,30.6,29.95,NNE,22,0.0,0.0,93,0.00,,,0.00,VWS V14.01,2013-10-20 11:49:00,
2013-10-20 07:50:00,32.4,30.6,29.95,NNE,22,0.0,0.0,93,0.00,,,0.00,VWS V14.01,2013-10-20 11:50:00,
2013-10-20 07:51:00,32.4,30.6,29.95,NNE,22,0.0,0.0,93,0.00,,,0.00,VWS V14.01,2013-10-20 11:51:00,
2013-10-20 07:52:00,32.4,30.6,29.95,NNE,22,0.0,0.0,93,0.00,,,0.00,VWS V14.01,2013-10-20 11:52:00,
2013-10-20 07:53:00,32.4,30.6,29.95,NNE,22,0.0,0.0,93,0.00,,,0.00,VWS V14.01,2013-10-20 11:53:00,
2013-10-20 07:54:00,32.8,31.0,29.95,WNW,292,0.0,0.0,93,0.00,,,0.00,VWS V14.01,2013-10-20 11:54:00,
2013-10-20 07:55:00,32.6,30.8,29.95,WNW,292,0.0,0.0,93,0.00,,,0.00,VWS V14.01,2013-10-20 11:55:00,
2013-10-20 07:56:00,32.8,31.0,29.95,WNW,292,0.0,0.0,93,0.00,,,0.00,VWS V14.01,2013-10-20 11:56:00,
2013-10-20 07:57:00,32.8,31.0,29.95,WNW,292,0.0,0.0,93,0.00,,,0.00,VWS V14.01,2013-10-20 11:57:00,
2013-10-20 07:58:00,32.8,31.0,29.95,WNW,292,0.0,0.0,93,0.00,,,0.00,VWS V14.01,2013-10-20 11:58:00,
2013-10-20 07:59:00,32.8,31.0,29.95,WNW,292,0.0,0.0,93,0.00,,,0.00,VWS V14.01,2013-10-20 11:59:00,
2013-10-20 08:00:00,32.8,31.0,29.95,WNW,292,0.0,0.0,93,0.00,,,0.00,VWS V14.01,2013-10-20 12:00:00,
2013-10-20 08:01:00,32.8,31.0,29.95,NW,315,0.0,0.0,93,0.00,,,0.00,VWS V14.01,2013-10-20 12:01:00,
2013-10-20 08:02:00,32.8,31.0,29.95,NW,315,0.0,0.0,93,0.00,,,0.00,VWS V14.01,2013-10-20 12:02:00,
2013-10-20 08:03:00,32.8,31.0,29.95,NW,315,0.0,0.0,93,0.00,,,0.00,VWS V14.01,2013-10-20 12:03:00,
2013-10-20 08:04:00,32.8,31.0,29.95,NW,315,0.0,0.0,93,0.00,,,0.00,VWS V14.01,2013-10-20 12:04:00,
2013-10-20 08:05:00,32.8,31.0,29.95,NW,315,0.0,0.0,93,0.00,,,0.00,VWS V14.01,2013-10-20 12:05:00,
2013-10-20 08:06:00,32.8,31.0,29.95,NW,315,0.0,0.0,93,0.00,,,0.00,VWS V14.01,2013-10-20 12:06:00,
2013-10-20 08:07:00,32.9,31.1,29.95,NW,315,0.0,0.0,93,0.00,,,0.00,VWS V14.01,2013-10-20 12:07:00,
2013-10-20 08:08:00,32.8,31.0,29.95,NW,315,0.0,0.0,93,0.00,,,0.00,VWS V14.01,2013-10-20 12:08:00,
2013-10-20 08:09:00,32.8,31.0,29.95,NW,315,0.0,0.0,93,0.00,,,0.00,VWS V14.01,2013-10-20 12:09:00,
2013-10-20 08:10:00,32.9,31.1,29.95,NNW,338,0.0,0.0,93,0.00,,,0.00,VWS V14.01,2013-10-20 12:10:00,
2013-10-20 08:11:00,32.9,31.1,29.95,NNW,338,0.0,0.0,93,0.00,,,0.00,VWS V14.01,2013-10-20 12:11:00,
2013-10-20 08:12:00,33.1,31.3,29.95,NNW,338,0.0,0.0,93,0.00,,,0.00,VWS V14.01,2013-10-20 12:12:00,
2013-10-20 08:14:00,32.9,31.1,29.95,NNE,22,0.0,0.0,93,0.00,,,0.00,VWS V14.01,2013-10-20 12:14:00,
2013-10-20 08:15:00,33.1,31.3,29.95,East,90,0.7,0.7,93,0.00,,,0.00,VWS V14.01,2013-10-20 12:15:00,
2013-10-20 08:16:00,33.1,31.3,29.95,East,90,0.7,0.7,93,0.00,,,0.00,VWS V14.01,2013-10-20 12:16:00,
2013-10-20 08:17:00,33.1,31.3,29.95,East,90,0.2,0.4,93,0.00,,,0.00,VWS V14.01,2013-10-20 12:17:00,
2013-10-20 08:18:00,33.1,31.3,29.96,ESE,112,0.7,0.7,93,0.00,,,0.00,VWS V14.01,2013-10-20 12:18:00,
2013-10-20 08:19:00,33.1,31.3,29.96,ESE,112,0.7,0.7,93,0.00,,,0.00,VWS V14.01,2013-10-20 12:19:00,
2013-10-20 08:20:00,33.1,31.3,29.96,ESE,112,0.4,0.7,93,0.00,,,0.00,VWS V14.01,2013-10-20 12:20:00,
2013-10-20 08:21:00,33.1,31.3,29.96,ESE,112,0.4,0.4,93,0.00,,,0.00,VWS V14.01,2013-10-20 12:21:00,
2013-10-20 08:22:00,32.9,31.1,29.96,SE,135,0.4,0.4,93,0.00,,,0.00,VWS V14.01,2013-10-20 12:22:00,
2013-10-20 08:23:00,33.1,31.3,29.96,SSW,202,0.0,0.2,93,0.00,,,0.00,VWS V14.01,2013-10-20 12:23:00,
2013-10-20 08:24:00,33.1,31.3,29.96,SSW,202,0.0,0.2,93,0.00,,,0.00,VWS V14.01,2013-10-20 12:24:00,
2013-10-20 08:25:00,33.1,31.3,29.96,ESE,112,0.0,0.0,93,0.00,,,0.00,VWS V14.01,2013-10-20 12:25:00,
2013-10-20 08:26:00,32.9,31.1,29.96,SE,135,0.4,0.4,93,0.00,,,0.00,VWS V14.01,2013-10-20 12:26:00,
2013-10-20 08:27:00,33.1,31.3,29.96,East,90,0.4,0.4,93,0.00,,,0.00,VWS V14.01,2013-10-20 12:27:00,
2013-10-20 08:28:00,33.1,31.3,29.96,ESE,112,0.0,0.4,93,0.00,,,0.00,VWS V14.01,2013-10-20 12:28:00,
2013-10-20 08:29:00,33.1,31.3,29.96,ESE,112,0.0,0.0,93,0.00,,,0.00,VWS V14.01,2013-10-20 12:29:00,
2013-10-20 08:30:00,33.3,31.5,29.96,ESE,112,1.1,1.1,93,0.00,,,0.00,VWS V14.01,2013-10-20 12:30:00,
2013-10-20 08:31:00,33.5,32.0,29.96,ESE,112,1.6,1.6,94,0.00,,,0.00,VWS V14.01,2013-10-20 12:31:00,
2013-10-20 08:32:00,33.5,32.0,29.96,East,90,0.2,1.6,94,0.00,,,0.00,VWS V14.01,2013-10-20 12:32:00,
2013-10-20 08:34:00,33.5,32.0,29.96,East,90,0.2,0.2,94,0.00,,,0.00,VWS V14.01,2013-10-20 12:34:00,
2013-10-20 08:35:00,33.5,32.0,29.96,East,90,0.2,0.2,94,0.00,,,0.00,VWS V14.01,2013-10-20 12:35:00,
2013-10-20 08:36:00,33.7,32.2,29.96,East,90,0.0,0.0,94,0.00,,,0.00,VWS V14.01,2013-10-20 12:36:00,
2013-10-20 08:38:00,33.7,32.2,29.96,East,90,0.0,0.0,94,0.00,,,0.00,VWS V14.01,2013-10-20 12:38:00,
2013-10-20 08:39:00,34.0,32.7,29.96,East,90,0.4,0.4,95,0.00,,,0.00,VWS V14.01,2013-10-20 12:39:00,
2013-10-20 08:40:00,34.0,32.7,29.96,ESE,112,0.2,0.2,95,0.00,,,0.00,VWS V14.01,2013-10-20 12:40:00,
2013-10-20 08:41:00,34.2,32.9,29.97,SE,135,1.1,1.1,95,0.00,,,0.00,VWS V14.01,2013-10-20 12:41:00,
2013-10-20 08:42:00,34.4,33.1,29.97,ESE,112,0.9,0.9,95,0.00,,,0.00,VWS V14.01,2013-10-20 12:42:00,
2013-10-20 08:44:00,34.4,33.1,29.97,ESE,112,0.9,0.9,95,0.00,,,0.00,VWS V14.01,2013-10-20 12:44:00,
2013-10-20 08:45:00,34.7,33.4,29.97,ESE,112,0.7,0.7,95,0.00,,,0.00,VWS V14.01,2013-10-20 12:45:00,
2013-10-20 08:46:00,35.3,34.0,29.97,ESE,112,0.4,0.4,95,0.00,,,0.00,VWS V14.01,2013-10-20 12:46:00,
2013-10-20 08:47:00,35.3,34.0,29.97,ESE,112,0.4,0.4,95,0.00,,,0.00,VWS V14.01,2013-10-20 12:47:00,
2013-10-20 08:48:00,35.6,34.3,29.97,ESE,112,0.2,0.4,95,0.00,,,0.00,VWS V14.01,2013-10-20 12:48:00,
2013-10-20 08:49:00,35.6,34.3,29.97,ESE,112,0.2,0.2,95,0.00,,,0.00,VWS V14.01,2013-10-20 12:49:00,
2013-10-20 08:50:00,35.6,34.3,29.97,ESE,112,0.2,0.2,95,0.00,,,0.00,VWS V14.01,2013-10-20 12:50:00,
2013-10-20 08:51:00,36.0,34.7,29.97,ESE,112,0.4,0.4,95,0.00,,,0.00,VWS V14.01,2013-10-20 12:51:00,
2013-10-20 08:52:00,36.0,34.7,29.97,ESE,112,0.4,0.4,95,0.00,,,0.00,VWS V14.01,2013-10-20 12:52:00,
2013-10-20 08:54:00,37.1,35.8,29.97,East,90,0.4,0.4,95,0.00,,,0.00,VWS V14.01,2013-10-20 12:54:00,
2013-10-20 08:55:00,37.1,35.8,29.97,East,90,0.4,0.4,95,0.00,,,0.00,VWS V14.01,2013-10-20 12:55:00,
2013-10-20 08:56:00,37.1,35.8,29.97,East,90,0.4,0.4,95,0.00,,,0.00,VWS V14.01,2013-10-20 12:56:00,
2013-10-20 08:57:00,37.1,35.8,29.97,East,90,0.4,0.4,95,0.00,,,0.00,VWS V14.01,2013-10-20 12:57:00,
2013-10-20 08:58:00,37.1,35.8,29.97,East,90,0.4,0.4,95,0.00,,,0.00,VWS V14.01,2013-10-20 12:58:00,
2013-10-20 08:59:00,38.2,36.6,29.97,NNE,22,0.4,0.4,94,0.00,,,0.00,VWS V14.01,2013-10-20 12:59:00,
2013-10-20 09:00:00,38.2,36.6,29.97,NNE,22,0.4,0.4,94,0.00,,,0.00,VWS V14.01,2013-10-20 13:00:00,
2013-10-20 09:02:00,38.3,36.7,29.97,NNE,22,0.0,0.0,94,0.00,,,0.00,VWS V14.01,2013-10-20 13:02:00,
2013-10-20 09:03:00,38.3,36.7,29.98,NNE,22,0.0,0.0,94,0.00,,,0.00,VWS V14.01,2013-10-20 13:03:00,
2013-10-20 09:04:00,39.2,37.3,29.98,ENE,68,0.4,0.4,93,0.00,,,0.00,VWS V14.01,2013-10-20 13:04:00,
2013-10-20 09:05:00,39.2,37.3,29.98,ENE,68,0.4,0.4,93,0.00,,,0.00,VWS V14.01,2013-10-20 13:05:00,
2013-10-20 09:06:00,39.6,37.8,29.98,North,0,0.0,0.0,93,0.00,,,0.00,VWS V14.01,2013-10-20 13:06:00,
2013-10-20 09:07:00,39.8,38.0,29.98,North,0,0.0,0.0,93,0.00,,,0.00,VWS V14.01,2013-10-20 13:07:00,
2013-10-20 09:08:00,40.1,38.0,29.98,NE,45,0.4,0.4,92,0.00,,,0.00,VWS V14.01,2013-10-20 13:08:00,
2013-10-20 09:10:00,40.5,38.4,29.98,East,90,0.2,0.4,92,0.00,,,0.00,VWS V14.01,2013-10-20 13:10:00,
2013-10-20 09:11:00,40.5,38.4,29.98,East,90,0.2,0.2,92,0.00,,,0.00,VWS V14.01,2013-10-20 13:11:00,
2013-10-20 09:12:00,41.6,39.2,29.98,SE,135,0.0,0.0,91,0.00,,,0.00,VWS V14.01,2013-10-20 13:12:00,
2013-10-20 09:13:00,41.6,39.2,29.98,SE,135,0.0,0.0,91,0.00,,,0.00,VWS V14.01,2013-10-20 13:13:00,
2013-10-20 09:14:00,41.9,39.2,29.98,ESE,112,0.9,0.9,90,0.00,,,0.00,VWS V14.01,2013-10-20 13:14:00,
2013-10-20 09:15:00,42.8,40.1,29.98,ENE,68,0.0,0.9,90,0.00,,,0.00,VWS V14.01,2013-10-20 13:15:00,
2013-10-20 09:16:00,42.8,40.1,29.98,ENE,68,0.0,0.9,90,0.00,,,0.00,VWS V14.01,2013-10-20 13:16:00,
2013-10-20 09:17:00,43.2,40.2,29.98,SE,135,0.4,0.4,89,0.00,,,0.00,VWS V14.01,2013-10-20 13:17:00,
2013-10-20 09:18:00,43.6,40.0,29.98,ESE,112,1.1,1.1,87,0.00,,,0.00,VWS V14.01,2013-10-20 13:18:00,
2013-10-20 09:19:00,43.6,40.0,29.98,ESE,112,1.1,1.1,87,0.00,,,0.00,VWS V14.01,2013-10-20 13:19:00,
2013-10-20 09:20:00,43.9,40.3,29.98,SSE,158,0.4,1.6,87,0.00,,,0.00,VWS V14.01,2013-10-20 13:20:00,
2013-10-20 09:21:00,43.9,40.3,29.98,SSE,158,0.4,0.4,87,0.00,,,0.00,VWS V14.01,2013-10-20 13:21:00,
2013-10-20 09:22:00,43.9,40.3,29.98,SSE,158,0.4,0.4,87,0.00,,,0.00,VWS V14.01,2013-10-20 13:22:00,
2013-10-20 09:24:00,44.3,39.2,29.98,ESE,112,1.8,1.8,82,0.00,,,0.00,VWS V14.01,2013-10-20 13:24:00,
2013-10-20 09:26:00,44.3,39.2,29.98,ESE,112,1.8,1.8,82,0.00,,,0.00,VWS V14.01,2013-10-20 13:26:00,
2013-10-20 09:27:00,44.3,39.5,29.98,NE,45,2.2,2.2,83,0.00,,,0.00,VWS V14.01,2013-10-20 13:27:00,
2013-10-20 09:28:00,44.3,39.5,29.98,NE,45,2.2,2.2,83,0.00,,,0.00,VWS V14.01,2013-10-20 13:28:00,
2013-10-20 09:29:00,44.6,39.8,29.98,SE,135,1.8,1.8,83,0.00,,,0.00,VWS V14.01,2013-10-20 13:29:00,
2013-10-20 09:30:00,44.8,39.7,29.98,ESE,112,0.4,1.8,82,0.00,,,0.00,VWS V14.01,2013-10-20 13:30:00,
2013-10-20 09:31:00,44.8,39.7,29.98,ESE,112,0.4,0.4,82,0.00,,,0.00,VWS V14.01,2013-10-20 13:31:00,
2013-10-20 09:32:00,44.8,39.7,29.98,ESE,112,0.4,0.4,82,0.00,,,0.00,VWS V14.01,2013-10-20 13:32:00,
2013-10-20 09:33:00,45.5,40.0,29.98,East,90,2.0,2.0,81,0.00,,,0.00,VWS V14.01,2013-10-20 13:33:00,
2013-10-20 09:34:00,45.5,40.0,29.98,East,90,2.0,2.0,81,0.00,,,0.00,VWS V14.01,2013-10-20 13:34:00,
2013-10-20 09:36:00,46.1,40.3,29.98,East,90,1.8,1.8,80,0.00,,,0.00,VWS V14.01,2013-10-20 13:36:00,
2013-10-20 09:37:00,46.1,40.3,29.98,East,90,1.8,1.8,80,0.00,,,0.00,VWS V14.01,2013-10-20 13:37:00,
2013-10-20 09:38:00,46.1,40.3,29.98,East,90,1.8,1.8,80,0.00,,,0.00,VWS V14.01,2013-10-20 13:38:00,
2013-10-20 09:39:00,46.1,40.3,29.98,East,90,1.8,1.8,80,0.00,,,0.00,VWS V14.01,2013-10-20 13:39:00,
2013-10-20 09:40:00,46.1,40.3,29.98,East,90,1.8,1.8,80,0.00,,,0.00,VWS V14.01,2013-10-20 13:40:00,
2013-10-20 09:41:00,46.4,39.6,29.98,SE,135,2.9,2.9,77,0.00,,,0.00,VWS V14.01,2013-10-20 13:41:00,
2013-10-20 09:42:00,46.4,39.6,29.98,SE,135,2.9,2.9,77,0.00,,,0.00,VWS V14.01,2013-10-20 13:42:00,
2013-10-20 09:43:00,46.4,39.6,29.98,SE,135,2.9,2.9,77,0.00,,,0.00,VWS V14.01,2013-10-20 13:43:00,
2013-10-20 09:44:00,46.4,39.6,29.98,SE,135,2.9,2.9,77,0.00,,,0.00,VWS V14.01,2013-10-20 13:44:00,
2013-10-20 09:45:00,46.6,40.5,29.98,SSE,158,1.1,1.1,79,0.00,,,0.00,VWS V14.01,2013-10-20 13:45:00,
2013-10-20 09:46:00,46.6,40.5,29.98,SSE,158,1.1,1.1,79,0.00,,,0.00,VWS V14.01,2013-10-20 13:46:00,
2013-10-20 09:48:00,46.6,40.5,29.98,SSE,158,1.1,1.1,79,0.00,,,0.00,VWS V14.01,2013-10-20 13:48:00,
2013-10-20 09:49:00,47.2,41.0,29.98,South,180,0.7,0.7,79,0.00,,,0.00,VWS V14.01,2013-10-20 13:49:00,
2013-10-20 09:50:00,47.5,41.0,29.98,SE,135,0.7,0.7,78,0.00,,,0.00,VWS V14.01,2013-10-20 13:50:00,
2013-10-20 09:51:00,48.1,40.9,29.98,ESE,112,1.8,2.5,76,0.00,,,0.00,VWS V14.01,2013-10-20 13:51:00,
2013-10-20 09:52:00,48.1,40.9,29.98,ESE,112,1.8,2.5,76,0.00,,,0.00,VWS V14.01,2013-10-20 13:52:00,
2013-10-20 09:53:00,48.1,40.9,29.98,ESE,112,1.8,1.8,76,0.00,,,0.00,VWS V14.01,2013-10-20 13:53:00,
2013-10-20 09:54:00,48.1,40.9,29.98,ESE,112,1.8,1.8,76,0.00,,,0.00,VWS V14.01,2013-10-20 13:54:00,
2013-10-20 09:56:00,48.6,38.5,29.98,SE,135,2.5,2.5,68,0.00,,,0.00,VWS V14.01,2013-10-20 13:56:00,
2013-10-20 09:57:00,48.6,38.5,29.98,SE,135,2.5,2.5,68,0.00,,,0.00,VWS V14.01,2013-10-20 13:57:00,
2013-10-20 09:58:00,48.6,38.5,29.98,SE,135,2.5,2.5,68,0.00,,,0.00,VWS V14.01,2013-10-20 13:58:00,
2013-10-20 09:59:00,49.3,40.7,29.98,SE,135,1.3,2.5,72,0.00,,,0.00,VWS V14.01,2013-10-20 13:59:00,
2013-10-20 10:00:00,49.3,40.7,29.98,SE,135,1.3,2.5,72,0.00,,,0.00,VWS V14.01,2013-10-20 14:00:00,
2013-10-20 10:01:00,49.3,40.7,29.98,SE,135,1.3,1.3,72,0.00,,,0.00,VWS V14.01,2013-10-20 14:01:00,
2013-10-20 10:02:00,49.3,40.7,29.98,SE,135,1.3,1.3,72,0.00,,,0.00,VWS V14.01,2013-10-20 14:02:00,
2013-10-20 10:03:00,50.8,42.1,29.98,SE,135,1.3,1.3,72,0.00,,,0.00,VWS V14.01,2013-10-20 14:03:00,
2013-10-20 10:04:00,50.8,41.4,29.98,SE,135,1.8,1.8,70,0.00,,,0.00,VWS V14.01,2013-10-20 14:04:00,
2013-10-20 10:06:00,50.8,41.4,29.98,SE,135,1.8,1.8,70,0.00,,,0.00,VWS V14.01,2013-10-20 14:06:00,
2013-10-20 10:07:00,51.1,40.9,29.98,SSE,158,1.3,1.8,68,0.00,,,0.00,VWS V14.01,2013-10-20 14:07:00,
2013-10-20 10:08:00,51.1,40.9,29.98,SSE,158,1.3,1.8,68,0.00,,,0.00,VWS V14.01,2013-10-20 14:08:00,
2013-10-20 10:09:00,51.1,40.5,29.98,ESE,112,1.6,1.8,67,0.00,,,0.00,VWS V14.01,2013-10-20 14:09:00,
2013-10-20 10:10:00,51.1,40.5,29.98,ESE,112,1.6,1.8,67,0.00,,,0.00,VWS V14.01,2013-10-20 14:10:00,
2013-10-20 10:11:00,51.1,40.5,29.98,ESE,112,1.6,1.6,67,0.00,,,0.00,VWS V14.01,2013-10-20 14:11:00,
2013-10-20 10:12:00,51.1,40.5,29.98,ESE,112,1.6,1.6,67,0.00,,,0.00,VWS V14.01,2013-10-20 14:12:00,
2013-10-20 10:13:00,51.1,40.5,29.98,ESE,112,1.6,1.6,67,0.00,,,0.00,VWS V14.01,2013-10-20 14:13:00,
2013-10-20 10:14:00,50.9,39.2,29.98,SE,135,2.2,2.2,64,0.00,,,0.00,VWS V14.01,2013-10-20 14:14:00,
2013-10-20 10:15:00,50.9,39.2,29.98,SE,135,2.2,2.2,64,0.00,,,0.00,VWS V14.01,2013-10-20 14:15:00,
2013-10-20 10:16:00,50.9,39.2,29.98,SE,135,2.2,2.2,64,0.00,,,0.00,VWS V14.01,2013-10-20 14:16:00,
2013-10-20 10:18:00,50.8,39.9,29.98,ESE,112,2.5,2.5,66,0.00,,,0.00,VWS V14.01,2013-10-20 14:18:00,
2013-10-20 10:20:00,50.8,39.9,29.98,ESE,112,2.5,2.5,66,0.00,,,0.00,VWS V14.01,2013-10-20 14:20:00,
2013-10-20 10:21:00,51.1,40.9,29.98,SSE,158,0.4,0.4,68,0.00,,,0.00,VWS V14.01,2013-10-20 14:21:00,
2013-10-20 10:22:00,51.5,40.9,29.98,SSE,158,2.2,2.2,67,0.00,,,0.00,VWS V14.01,2013-10-20 14:22:00,
2013-10-20 10:23:00,51.5,40.9,29.98,SSE,158,2.2,2.2,67,0.00,,,0.00,VWS V14.01,2013-10-20 14:23:00,
2013-10-20 10:24:00,51.8,40.4,29.98,ESE,112,2.5,2.5,65,0.00,,,0.00,VWS V14.01,2013-10-20 14:24:00,
2013-10-20 10:25:00,51.8,40.4,29.98,ESE,112,2.5,2.5,65,0.00,,,0.00,VWS V14.01,2013-10-20 14:25:00,
2013-10-20 10:26:00,51.8,40.4,29.98,ESE,112,2.5,2.5,65,0.00,,,0.00,VWS V14.01,2013-10-20 14:26:00,
2013-10-20 10:28:00,51.7,39.5,29.98,SE,135,3.6,3.6,63,0.00,,,0.00,VWS V14.01,2013-10-20 14:28:00,
2013-10-20 10:29:00,51.7,39.5,29.98,SE,135,3.6,3.6,63,0.00,,,0.00,VWS V14.01,2013-10-20 14:29:00,
2013-10-20 10:30:00,51.5,38.9,29.98,SE,135,3.4,3.6,62,0.00,,,0.00,VWS V14.01,2013-10-20 14:30:00,
2013-10-20 10:31:00,51.3,39.5,29.98,SSE,158,2.2,3.4,64,0.00,,,0.00,VWS V14.01,2013-10-20 14:31:00,
2013-10-20 10:32:00,51.3,39.5,29.98,SSE,158,2.2,3.4,64,0.00,,,0.00,VWS V14.01,2013-10-20 14:32:00,
2013-10-20 10:33:00,51.3,39.5,29.98,SSE,158,2.2,2.2,64,0.00,,,0.00,VWS V14.01,2013-10-20 14:33:00,
2013-10-20 10:34:00,51.3,39.2,29.98,SE,135,1.6,2.2,63,0.00,,,0.00,VWS V14.01,2013-10-20 14:34:00,
2013-10-20 10:36:00,51.5,38.5,29.98,ESE,112,2.5,2.9,61,0.00,,,0.00,VWS V14.01,2013-10-20 14:36:00,
2013-10-20 10:37:00,51.8,40.0,29.98,ESE,112,1.1,2.5,64,0.00,,,0.00,VWS V14.01,2013-10-20 14:37:00,
2013-10-20 10:38:00,51.8,40.0,29.98,ESE,112,1.1,2.5,64,0.00,,,0.00,VWS V14.01,2013-10-20 14:38:00,
2013-10-20 10:39:00,51.8,40.0,29.98,ESE,112,1.1,1.1,64,0.00,,,0.00,VWS V14.01,2013-10-20 14:39:00,
2013-10-20 10:40:00,52.2,39.2,29.98,ESE,112,2.0,2.9,61,0.00,,,0.00,VWS V14.01,2013-10-20 14:40:00,
2013-10-20 10:41:00,52.2,39.2,29.98,ESE,112,2.0,2.0,61,0.00,,,0.00,VWS V14.01,2013-10-20 14:41:00,
2013-10-20 10:42:00,52.4,39.8,29.98,WNW,292,0.0,0.0,62,0.00,,,0.00,VWS V14.01,2013-10-20 14:42:00,
2013-10-20 10:44:00,52.4,39.8,29.98,WNW,292,0.0,0.0,62,0.00,,,0.00,VWS V14.01,2013-10-20 14:44:00,
2013-10-20 10:46:00,53.5,40.4,29.98,SSE,158,2.2,2.2,61,0.00,,,0.00,VWS V14.01,2013-10-20 14:46:00,
2013-10-20 10:48:00,53.5,40.4,29.98,SSE,158,2.2,2.2,61,0.00,,,0.00,VWS V14.01,2013-10-20 14:48:00,
2013-10-20 10:49:00,53.5,40.4,29.98,SSE,158,2.2,2.2,61,0.00,,,0.00,VWS V14.01,2013-10-20 14:49:00,
2013-10-20 10:50:00,53.6,39.2,29.98,ESE,112,4.0,4.0,58,0.00,,,0.00,VWS V14.01,2013-10-20 14:50:00,
2013-10-20 10:51:00,53.6,39.2,29.98,ESE,112,4.0,4.0,58,0.00,,,0.00,VWS V14.01,2013-10-20 14:51:00,
2013-10-20 10:52:00,53.6,39.2,29.98,ESE,112,4.0,4.0,58,0.00,,,0.00,VWS V14.01,2013-10-20 14:52:00,
2013-10-20 10:53:00,53.6,39.2,29.98,ESE,112,4.0,4.0,58,0.00,,,0.00,VWS V14.01,2013-10-20 14:53:00,
2013-10-20 10:54:00,53.8,40.7,29.98,SE,135,2.5,2.5,61,0.00,,,0.00,VWS V14.01,2013-10-20 14:54:00,
2013-10-20 10:55:00,53.8,40.7,29.98,SE,135,2.5,2.5,61,0.00,,,0.00,VWS V14.01,2013-10-20 14:55:00,
2013-10-20 10:56:00,53.8,40.7,29.98,SE,135,2.5,2.5,61,0.00,,,0.00,VWS V14.01,2013-10-20 14:56:00,
2013-10-20 10:58:00,53.8,39.8,29.98,SSE,158,2.9,2.9,59,0.00,,,0.00,VWS V14.01,2013-10-20 14:58:00,
2013-10-20 10:59:00,53.8,39.8,29.98,SSE,158,2.9,2.9,59,0.00,,,0.00,VWS V14.01,2013-10-20 14:59:00,
2013-10-20 11:00:00,53.8,39.8,29.98,SSE,158,2.9,2.9,59,0.00,,,0.00,VWS V14.01,2013-10-20 15:00:00,
2013-10-20 11:01:00,53.8,39.8,29.98,SSE,158,2.9,2.9,59,0.00,,,0.00,VWS V14.01,2013-10-20 15:01:00,
2013-10-20 11:02:00,53.6,39.6,29.98,SE,135,0.9,2.9,59,0.00,,,0.00,VWS V14.01,2013-10-20 15:02:00,
2013-10-20 11:04:00,53.6,39.2,29.98,SE,135,1.8,1.8,58,0.00,,,0.00,VWS V14.01,2013-10-20 15:04:00,
2013-10-20 11:05:00,53.6,39.2,29.98,SE,135,1.8,1.8,58,0.00,,,0.00,VWS V14.01,2013-10-20 15:05:00,
2013-10-20 11:06:00,54.0,38.7,29.98,SE,135,3.6,3.6,56,0.00,,,0.00,VWS V14.01,2013-10-20 15:06:00,
2013-10-20 11:08:00,54.0,39.1,29.98,SSE,158,1.8,3.6,57,0.00,,,0.00,VWS V14.01,2013-10-20 15:08:00,
2013-10-20 11:09:00,54.0,39.1,29.98,SSE,158,1.8,1.8,57,0.00,,,0.00,VWS V14.01,2013-10-20 15:09:00,
2013-10-20 11:10:00,54.0,39.1,29.98,SSE,158,1.8,1.8,57,0.00,,,0.00,VWS V14.01,2013-10-20 15:10:00,
2013-10-20 11:11:00,54.4,39.0,29.98,ESE,112,3.4,4.0,56,0.00,,,0.00,VWS V14.01,2013-10-20 15:11:00,
2013-10-20 11:12:00,54.4,39.0,29.98,ESE,112,3.4,3.4,56,0.00,,,0.00,VWS V14.01,2013-10-20 15:12:00,
2013-10-20 11:14:00,54.4,39.0,29.98,ESE,112,3.4,3.4,56,0.00,,,0.00,VWS V14.01,2013-10-20 15:14:00,
2013-10-20 11:15:00,54.4,39.0,29.98,ESE,112,3.4,3.4,56,0.00,,,0.00,VWS V14.01,2013-10-20 15:15:00,
2013-10-20 11:16:00,54.2,40.2,29.98,SE,135,1.1,3.4,59,0.00,,,0.00,VWS V14.01,2013-10-20 15:16:00,
2013-10-20 11:17:00,54.2,40.2,29.98,SE,135,1.1,1.1,59,0.00,,,0.00,VWS V14.01,2013-10-20 15:17:00,
2013-10-20 11:18:00,54.4,40.4,29.98,East,90,3.4,3.4,59,0.00,,,0.00,VWS V14.01,2013-10-20 15:18:00,
2013-10-20 11:20:00,54.4,40.4,29.98,East,90,3.4,3.4,59,0.00,,,0.00,VWS V14.01,2013-10-20 15:20:00,
2013-10-20 11:21:00,54.4,40.4,29.98,East,90,3.4,3.4,59,0.00,,,0.00,VWS V14.01,2013-10-20 15:21:00,
2013-10-20 11:22:00,54.4,39.5,29.98,ESE,112,1.1,3.4,57,0.00,,,0.00,VWS V14.01,2013-10-20 15:22:00,
2013-10-20 11:24:00,54.0,38.2,29.98,NE,45,2.7,5.4,55,0.00,,,0.00,VWS V14.01,2013-10-20 15:24:00,
2013-10-20 11:25:00,54.2,38.9,29.98,SE,135,2.2,2.7,56,0.00,,,0.00,VWS V14.01,2013-10-20 15:25:00,
2013-10-20 11:26:00,54.2,38.9,29.98,SE,135,2.2,2.7,56,0.00,,,0.00,VWS V14.01,2013-10-20 15:26:00,
2013-10-20 11:27:00,54.2,38.9,29.98,SE,135,2.2,2.2,56,0.00,,,0.00,VWS V14.01,2013-10-20 15:27:00,
2013-10-20 11:28:00,54.2,38.9,29.98,SE,135,2.2,2.2,56,0.00,,,0.00,VWS V14.01,2013-10-20 15:28:00,
2013-10-20 11:30:00,55.1,40.2,29.99,SSE,158,1.8,2.2,57,0.00,,,0.00,VWS V14.01,2013-10-20 15:30:00,
2013-10-20 11:31:00,55.1,40.2,29.99,SSE,158,1.8,1.8,57,0.00,,,0.00,VWS V14.01,2013-10-20 15:31:00,
2013-10-20 11:32:00,55.1,40.2,29.99,SSE,158,1.8,1.8,57,0.00,,,0.00,VWS V14.01,2013-10-20 15:32:00,
2013-10-20 11:33:00,55.1,40.2,29.99,SSE,158,1.8,1.8,57,0.00,,,0.00,VWS V14.01,2013-10-20 15:33:00,
2013-10-20 11:34:00,55.8,39.4,29.99,East,90,4.5,4.5,54,0.00,,,0.00,VWS V14.01,2013-10-20 15:34:00,
2013-10-20 11:36:00,55.8,38.5,29.98,ESE,112,3.6,4.5,52,0.00,,,0.00,VWS V14.01,2013-10-20 15:36:00,
2013-10-20 11:38:00,55.8,38.5,29.99,ESE,112,3.6,3.6,52,0.00,,,0.00,VWS V14.01,2013-10-20 15:38:00,
2013-10-20 11:39:00,55.8,38.5,29.99,ESE,112,3.6,3.6,52,0.00,,,0.00,VWS V14.01,2013-10-20 15:39:00,
2013-10-20 11:40:00,56.2,38.3,29.99,ESE,112,2.5,3.6,51,0.00,,,0.00,VWS V14.01,2013-10-20 15:40:00,
2013-10-20 11:41:00,56.2,38.3,29.99,ESE,112,2.5,2.5,51,0.00,,,0.00,VWS V14.01,2013-10-20 15:41:00,
2013-10-20 11:42:00,56.2,38.3,29.98,ESE,112,2.5,2.5,51,0.00,,,0.00,VWS V14.01,2013-10-20 15:42:00,
2013-10-20 11:43:00,56.2,38.3,29.98,ESE,112,2.5,2.5,51,0.00,,,0.00,VWS V14.01,2013-10-20 15:43:00,
2013-10-20 11:44:00,56.5,39.1,29.98,NE,45,3.4,3.4,52,0.00,,,0.00,VWS V14.01,2013-10-20 15:44:00,
2013-10-20 11:46:00,56.5,39.1,29.98,NE,45,3.4,3.4,52,0.00,,,0.00,VWS V14.01,2013-10-20 15:46:00,
2013-10-20 11:47:00,56.5,39.1,29.98,NE,45,3.4,3.4,52,0.00,,,0.00,VWS V14.01,2013-10-20 15:47:00,
2013-10-20 11:48:00,56.5,39.1,29.98,ESE,112,4.0,4.0,52,0.00,,,0.00,VWS V14.01,2013-10-20 15:48:00,
2013-10-20 11:49:00,56.5,39.1,29.98,ESE,112,3.6,3.6,52,0.00,,,0.00,VWS V14.01,2013-10-20 15:49:00,
2013-10-20 11:50:00,56.5,39.1,29.98,ESE,112,3.6,3.6,52,0.00,,,0.00,VWS V14.01,2013-10-20 15:50:00,
2013-10-20 11:52:00,57.2,40.7,29.98,NE,45,1.6,3.6,54,0.00,,,0.00,VWS V14.01,2013-10-20 15:52:00,
2013-10-20 11:53:00,57.4,40.9,29.98,ENE,68,1.8,1.8,54,0.00,,,0.00,VWS V14.01,2013-10-20 15:53:00,
2013-10-20 11:54:00,57.4,40.9,29.98,ENE,68,1.8,1.8,54,0.00,,,0.00,VWS V14.01,2013-10-20 15:54:00,
2013-10-20 11:56:00,58.0,41.5,29.98,North,0,2.2,2.2,54,0.00,,,0.00,VWS V14.01,2013-10-20 15:56:00,
2013-10-20 11:57:00,58.0,41.5,29.98,North,0,2.2,2.2,54,0.00,,,0.00,VWS V14.01,2013-10-20 15:57:00,
2013-10-20 11:58:00,58.0,40.5,29.98,East,90,2.0,2.2,52,0.00,,,0.00,VWS V14.01,2013-10-20 15:58:00,
2013-10-20 11:59:00,58.0,40.5,29.98,East,90,2.0,2.0,52,0.00,,,0.00,VWS V14.01,2013-10-20 15:59:00,
2013-10-20 12:00:00,58.0,40.5,29.98,East,90,2.0,2.0,52,0.00,,,0.00,VWS V14.01,2013-10-20 16:00:00,
2013-10-20 12:02:00,58.7,41.1,29.98,ENE,68,3.4,3.4,52,0.00,,,0.00,VWS V14.01,2013-10-20 16:02:00,
2013-10-20 12:03:00,58.7,41.1,29.98,ENE,68,3.4,3.4,52,0.00,,,0.00,VWS V14.01,2013-10-20 16:03:00,
2013-10-20 12:04:00,58.7,41.1,29.98,ENE,68,3.4,3.4,52,0.00,,,0.00,VWS V14.01,2013-10-20 16:04:00,
2013-10-20 12:05:00,58.7,41.1,29.98,ENE,68,3.4,3.4,52,0.00,,,0.00,VWS V14.01,2013-10-20 16:05:00,
2013-10-20 12:06:00,58.3,39.2,29.98,SE,135,4.3,4.9,49,0.00,,,0.00,VWS V14.01,2013-10-20 16:06:00,
2013-10-20 12:07:00,58.1,38.5,29.98,SE,135,2.5,4.3,48,0.00,,,0.00,VWS V14.01,2013-10-20 16:07:00,
2013-10-20 12:08:00,58.1,38.5,29.98,SE,135,2.5,2.5,48,0.00,,,0.00,VWS V14.01,2013-10-20 16:08:00,
2013-10-20 12:09:00,58.1,38.5,29.98,SE,135,2.5,2.5,48,0.00,,,0.00,VWS V14.01,2013-10-20 16:09:00,
2013-10-20 12:10:00,58.1,38.5,29.98,SE,135,2.5,2.5,48,0.00,,,0.00,VWS V14.01,2013-10-20 16:10:00,
2013-10-20 12:12:00,58.0,39.5,29.98,SSE,158,1.8,2.5,50,0.00,,,0.00,VWS V14.01,2013-10-20 16:12:00,
2013-10-20 12:13:00,58.0,39.5,29.98,SSE,158,1.8,1.8,50,0.00,,,0.00,VWS V14.01,2013-10-20 16:13:00,
2013-10-20 12:14:00,58.0,40.0,29.98,SSE,158,1.8,1.8,51,0.00,,,0.00,VWS V14.01,2013-10-20 16:14:00,
2013-10-20 12:15:00,58.0,40.0,29.98,SSE,158,1.8,1.8,51,0.00,,,0.00,VWS V14.01,2013-10-20 16:15:00,
2013-10-20 12:16:00,58.5,41.0,29.98,SSE,158,5.1,5.1,52,0.00,,,0.00,VWS V14.01,2013-10-20 16:16:00,
2013-10-20 12:18:00,58.3,40.3,29.98,ESE,112,3.4,5.1,51,0.00,,,0.00,VWS V14.01,2013-10-20 16:18:00,
2013-10-20 12:20:00,58.0,39.5,29.98,SE,135,2.5,2.5,50,0.00,,,0.00,VWS V14.01,2013-10-20 16:20:00,
2013-10-20 12:22:00,58.0,39.5,29.98,SE,135,2.5,2.5,50,0.00,,,0.00,VWS V14.01,2013-10-20 16:22:00,
2013-10-20 12:23:00,58.0,39.5,29.98,SE,135,2.5,2.5,50,0.00,,,0.00,VWS V14.01,2013-10-20 16:23:00,
2013-10-20 12:24:00,58.5,40.5,29.98,South,180,2.5,2.5,51,0.00,,,0.00,VWS V14.01,2013-10-20 16:24:00,
2013-10-20 12:25:00,58.7,40.1,29.98,SSE,158,1.8,2.5,50,0.00,,,0.00,VWS V14.01,2013-10-20 16:25:00,
2013-10-20 12:26:00,58.7,39.6,29.98,SSE,158,2.2,2.5,49,0.00,,,0.00,VWS V14.01,2013-10-20 16:26:00,
2013-10-20 12:27:00,58.7,39.6,29.98,SSE,158,2.2,2.2,49,0.00,,,0.00,VWS V14.01,2013-10-20 16:27:00,
2013-10-20 12:28:00,58.7,39.6,29.98,SSE,158,2.2,2.2,49,0.00,,,0.00,VWS V14.01,2013-10-20 16:28:00,
2013-10-20 12:30:00,58.1,39.6,29.98,SE,135,1.3,1.3,50,0.00,,,0.00,VWS V14.01,2013-10-20 16:30:00,
2013-10-20 12:31:00,58.1,39.6,29.98,SE,135,1.3,1.3,50,0.00,,,0.00,VWS V14.01,2013-10-20 16:31:00,
2013-10-20 12:32:00,58.1,39.6,29.98,North,0,1.3,1.3,50,0.00,,,0.00,VWS V14.01,2013-10-20 16:32:00,
2013-10-20 12:33:00,58.1,39.6,29.98,North,0,1.3,1.3,50,0.00,,,0.00,VWS V14.01,2013-10-20 16:33:00,
2013-10-20 12:34:00,58.1,39.6,29.98,North,0,1.3,1.3,50,0.00,,,0.00,VWS V14.01,2013-10-20 16:34:00,
2013-10-20 12:35:00,58.9,38.7,29.98,SSW,202,1.8,1.8,47,0.00,,,0.00,VWS V14.01,2013-10-20 16:35:00,
2013-10-20 12:36:00,58.9,38.7,29.98,SSW,202,1.8,1.8,47,0.00,,,0.00,VWS V14.01,2013-10-20 16:36:00,
2013-10-20 12:38:00,59.4,40.2,29.98,ENE,68,3.4,3.4,49,0.00,,,0.00,VWS V14.01,2013-10-20 16:38:00,
2013-10-20 12:39:00,59.4,40.2,29.98,ENE,68,3.4,3.4,49,0.00,,,0.00,VWS V14.01,2013-10-20 16:39:00,
2013-10-20 12:40:00,59.4,40.2,29.98,ENE,68,3.4,3.4,49,0.00,,,0.00,VWS V14.01,2013-10-20 16:40:00,
2013-10-20 12:41:00,59.4,40.2,29.98,ENE,68,3.4,3.4,49,0.00,,,0.00,VWS V14.01,2013-10-20 16:41:00,
2013-10-20 12:42:00,59.4,40.2,29.98,ENE,68,3.4,3.4,49,0.00,,,0.00,VWS V14.01,2013-10-20 16:42:00,
2013-10-20 12:43:00,59.0,40.9,29.98,SSE,158,2.5,2.5,51,0.00,,,0.00,VWS V14.01,2013-10-20 16:43:00,
2013-10-20 12:44:00,59.0,40.9,29.98,SSE,158,2.5,2.5,51,0.00,,,0.00,VWS V14.01,2013-10-20 16:44:00,
2013-10-20 12:53:00,57.4,39.4,29.98,SSW,202,4.0,4.0,51,0.00,,,0.16,VWS V14.01,2013-10-20 16:53:00,
2013-10-20 12:54:00,56.5,39.1,29.98,ESE,112,2.0,4.0,52,0.00,,,0.16,VWS V14.01,2013-10-20 16:54:00,
2013-10-20 12:56:00,55.8,37.5,29.98,SE,135,1.8,3.4,50,0.00,,,0.16,VWS V14.01,2013-10-20 16:56:00,
2013-10-20 12:57:00,55.8,37.5,29.98,SE,135,2.5,3.4,50,0.00,,,0.16,VWS V14.01,2013-10-20 16:57:00,
2013-10-20 12:58:00,55.8,37.5,29.98,SE,135,2.5,2.5,50,0.00,,,0.16,VWS V14.01,2013-10-20 16:58:00,
2013-10-20 12:59:00,55.8,37.5,29.98,SE,135,2.5,2.5,50,0.00,,,0.16,VWS V14.01,2013-10-20 16:59:00,
2013-10-20 13:00:00,55.8,37.5,29.98,SE,135,2.5,2.5,50,0.00,,,0.16,VWS V14.01,2013-10-20 17:00:00,
2013-10-20 13:02:00,55.8,39.9,29.98,ENE,68,3.4,4.7,55,0.00,,,0.16,VWS V14.01,2013-10-20 17:02:00,
2013-10-20 13:03:00,55.8,39.9,29.98,ESE,112,3.4,4.7,55,0.00,,,0.16,VWS V14.01,2013-10-20 17:03:00,
2013-10-20 13:04:00,56.0,39.1,29.98,ESE,112,1.8,1.8,53,0.00,,,0.16,VWS V14.01,2013-10-20 17:04:00,
2013-10-20 13:05:00,56.0,39.1,29.98,ENE,68,1.8,1.8,53,0.00,,,0.16,VWS V14.01,2013-10-20 17:05:00,
2013-10-20 13:06:00,56.5,39.6,29.98,SE,135,2.5,2.5,53,0.00,,,0.16,VWS V14.01,2013-10-20 17:06:00,
2013-10-20 13:08:00,56.9,39.5,29.97,SE,135,5.4,5.4,52,0.00,,,0.16,VWS V14.01,2013-10-20 17:08:00,
2013-10-20 13:09:00,56.9,39.5,29.97,SE,135,5.4,5.4,52,0.00,,,0.16,VWS V14.01,2013-10-20 17:09:00,
2013-10-20 13:10:00,56.7,39.3,29.98,ESE,112,2.0,5.4,52,0.00,,,0.16,VWS V14.01,2013-10-20 17:10:00,
2013-10-20 13:12:00,56.7,38.8,29.97,SE,135,2.0,2.0,51,0.00,,,0.16,VWS V14.01,2013-10-20 17:12:00,
2013-10-20 13:13:00,57.1,40.2,29.97,ESE,112,3.4,4.7,53,0.00,,,0.16,VWS V14.01,2013-10-20 17:13:00,
2013-10-20 13:14:00,57.1,39.7,29.97,ESE,112,3.4,3.4,52,0.00,,,0.16,VWS V14.01,2013-10-20 17:14:00,
2013-10-20 13:15:00,57.4,39.4,29.97,SE,135,2.2,3.4,51,0.00,,,0.16,VWS V14.01,2013-10-20 17:15:00,
2013-10-20 13:17:00,57.8,40.3,29.97,ESE,112,3.4,4.9,52,0.00,,,0.16,VWS V14.01,2013-10-20 17:17:00,
2013-10-20 13:18:00,58.0,39.5,29.97,South,180,2.9,3.1,50,0.00,,,0.16,VWS V14.01,2013-10-20 17:18:00,
2013-10-20 13:19:00,58.1,40.1,29.97,SE,135,4.5,4.5,51,0.00,,,0.16,VWS V14.01,2013-10-20 17:19:00,
2013-10-20 13:20:00,58.3,40.3,29.97,SE,135,2.9,4.5,51,0.00,,,0.16,VWS V14.01,2013-10-20 17:20:00,
2013-10-20 13:21:00,58.3,40.3,29.97,SSE,158,2.5,2.9,51,0.00,,,0.16,VWS V14.01,2013-10-20 17:21:00,
2013-10-20 13:22:00,58.5,40.5,29.97,ESE,112,0.9,2.9,51,0.00,,,0.16,VWS V14.01,2013-10-20 17:22:00,
2013-10-20 13:23:00,58.7,41.6,29.97,ESE,112,6.9,6.9,53,0.00,,,0.16,VWS V14.01,2013-10-20 17:23:00,
2013-10-20 13:24:00,58.7,41.6,29.97,ESE,112,6.9,6.9,53,0.00,,,0.16,VWS V14.01,2013-10-20 17:24:00,
2013-10-20 13:25:00,58.7,41.6,29.97,ESE,112,6.9,6.9,53,0.00,,,0.16,VWS V14.01,2013-10-20 17:25:00,
2013-10-20 13:26:00,58.7,41.6,29.97,ESE,112,6.9,6.9,53,0.00,,,0.16,VWS V14.01,2013-10-20 17:26:00,
2013-10-20 13:27:00,58.7,39.1,29.97,South,180,0.7,0.7,48,0.00,,,0.16,VWS V14.01,2013-10-20 17:27:00,
2013-10-20 13:29:00,58.3,38.7,29.97,SE,135,3.8,3.8,48,0.00,,,0.16,VWS V14.01,2013-10-20 17:29:00,
2013-10-20 13:30:00,58.3,38.7,29.97,SE,135,3.8,3.8,48,0.00,,,0.16,VWS V14.01,2013-10-20 17:30:00,
2013-10-20 13:31:00,58.3,38.7,29.97,SE,135,3.8,3.8,48,0.00,,,0.16,VWS V14.01,2013-10-20 17:31:00,
2013-10-20 13:32:00,59.0,40.4,29.96,ESE,112,1.1,3.8,50,0.00,,,0.16,VWS V14.01,2013-10-20 17:32:00,
2013-10-20 13:34:00,59.0,39.9,29.96,SSE,158,0.7,0.7,49,0.00,,,0.16,VWS V14.01,2013-10-20 17:34:00,
2013-10-20 13:35:00,59.0,39.9,29.96,SSE,158,0.7,0.7,49,0.00,,,0.16,VWS V14.01,2013-10-20 17:35:00,
2013-10-20 13:36:00,59.8,39.5,29.96,SE,135,2.0,2.0,47,0.00,,,0.16,VWS V14.01,2013-10-20 17:36:00,
2013-10-20 13:37:00,59.9,39.1,29.96,SE,135,2.2,2.2,46,0.00,,,0.16,VWS V14.01,2013-10-20 17:37:00,
2013-10-20 13:39:00,59.9,39.1,29.96,SE,135,2.2,2.2,46,0.00,,,0.16,VWS V14.01,2013-10-20 17:39:00,
2013-10-20 13:40:00,59.9,39.1,29.96,SE,135,2.2,2.2,46,0.00,,,0.16,VWS V14.01,2013-10-20 17:40:00,
2013-10-20 13:41:00,60.1,39.8,29.96,East,90,2.9,2.9,47,0.00,,,0.16,VWS V14.01,2013-10-20 17:41:00,
2013-10-20 13:43:00,60.1,39.8,29.96,SSE,158,1.8,1.8,47,0.00,,,0.16,VWS V14.01,2013-10-20 17:43:00,
2013-10-20 13:44:00,60.1,39.8,29.96,SSE,158,1.8,1.8,47,0.00,,,0.16,VWS V14.01,2013-10-20 17:44:00,
2013-10-20 13:45:00,60.1,39.3,29.96,SE,135,2.2,2.2,46,0.00,,,0.16,VWS V14.01,2013-10-20 17:45:00,
2013-10-20 13:46:00,60.1,38.7,29.96,SE,135,2.2,2.2,45,0.00,,,0.16,VWS V14.01,2013-10-20 17:46:00,
2013-10-20 13:48:00,60.1,38.7,29.96,SE,135,2.2,2.2,45,0.16,,,0.16,VWS V14.01,2013-10-20 17:48:00,
2013-10-20 13:50:00,59.8,40.1,29.95,ESE,112,3.1,6.7,48,0.00,,,0.16,VWS V14.01,2013-10-20 17:50:00,
2013-10-20 13:51:00,59.8,40.1,29.95,ESE,112,4.9,4.9,48,0.00,,,0.16,VWS V14.01,2013-10-20 17:51:00,
2013-10-20 13:52:00,59.8,40.1,29.96,ESE,112,4.9,4.9,48,0.00,,,0.16,VWS V14.01,2013-10-20 17:52:00,
2013-10-20 13:53:00,59.8,40.1,29.95,ESE,112,4.9,4.9,48,0.00,,,0.16,VWS V14.01,2013-10-20 17:53:00,
2013-10-20 13:55:00,60.1,39.8,29.96,ESE,112,1.1,1.1,47,0.00,,,0.16,VWS V14.01,2013-10-20 17:55:00,
2013-10-20 13:57:00,60.1,39.8,29.95,ESE,112,1.1,1.1,47,0.00,,,0.16,VWS V14.01,2013-10-20 17:57:00,
2013-10-20 13:58:00,60.8,38.8,29.95,North,0,2.7,2.7,44,0.00,,,0.16,VWS V14.01,2013-10-20 17:58:00,
2013-10-20 14:00:00,61.0,39.5,29.95,SSE,158,3.6,3.6,45,0.00,,,0.16,VWS V14.01,2013-10-20 18:00:00,
2013-10-20 14:02:00,60.8,38.8,29.95,ESE,112,4.3,4.3,44,0.00,,,0.16,VWS V14.01,2013-10-20 18:02:00,
2013-10-20 14:03:00,60.8,38.8,29.95,ESE,112,4.3,4.3,44,0.00,,,0.16,VWS V14.01,2013-10-20 18:03:00,
2013-10-20 14:04:00,60.8,38.8,29.95,ESE,112,4.3,4.3,44,0.00,,,0.16,VWS V14.01,2013-10-20 18:04:00,
2013-10-20 14:05:00,60.1,38.1,29.95,SE,135,2.0,4.3,44,0.00,,,0.16,VWS V14.01,2013-10-20 18:05:00,
2013-10-20 14:07:00,60.1,38.1,29.95,SE,135,2.0,2.0,44,0.00,,,0.16,VWS V14.01,2013-10-20 18:07:00,
2013-10-20 14:09:00,59.9,38.5,29.95,SE,135,4.7,4.7,45,0.00,,,0.16,VWS V14.01,2013-10-20 18:09:00,
2013-10-20 14:10:00,59.9,39.1,29.95,SE,135,4.7,4.7,46,0.00,,,0.16,VWS V14.01,2013-10-20 18:10:00,
2013-10-20 14:12:00,59.9,39.1,29.95,SE,135,4.7,4.7,46,0.00,,,0.16,VWS V14.01,2013-10-20 18:12:00,
2013-10-20 14:14:00,60.1,39.8,29.95,SE,135,4.7,4.7,47,0.00,,,0.16,VWS V14.01,2013-10-20 18:14:00,
2013-10-20 14:15:00,60.1,39.8,29.95,SE,135,4.7,4.7,47,0.00,,,0.16,VWS V14.01,2013-10-20 18:15:00,
2013-10-20 14:17:00,60.5,40.2,29.95,SSE,158,2.9,4.7,47,0.00,,,0.16,VWS V14.01,2013-10-20 18:17:00,
2013-10-20 14:18:00,60.5,41.3,29.95,SSE,158,2.9,2.9,49,0.00,,,0.16,VWS V14.01,2013-10-20 18:18:00,
2013-10-20 14:19:00,60.5,41.3,29.95,SSE,158,2.9,2.9,49,0.00,,,0.16,VWS V14.01,2013-10-20 18:19:00,
2013-10-20 14:20:00,60.5,41.3,29.95,SSE,158,2.9,2.9,49,0.00,,,0.16,VWS V14.01,2013-10-20 18:20:00,
2013-10-20 14:23:00,60.5,39.6,29.95,SE,135,5.4,5.4,46,0.00,,,0.16,VWS V14.01,2013-10-20 18:23:00,
2013-10-20 14:24:00,60.5,39.6,29.95,SE,135,5.4,5.4,46,0.00,,,0.16,VWS V14.01,2013-10-20 18:24:00,
2013-10-20 14:25:00,60.5,39.6,29.95,SE,135,5.4,5.4,46,0.00,,,0.16,VWS V14.01,2013-10-20 18:25:00,
2013-10-20 14:28:00,60.7,39.8,29.95,East,90,5.4,5.4,46,0.00,,,0.16,VWS V14.01,2013-10-20 18:28:00,
2013-10-20 14:29:00,60.7,39.8,29.95,East,90,5.4,5.4,46,0.00,,,0.16,VWS V14.01,2013-10-20 18:29:00,
2013-10-20 14:30:00,60.7,39.8,29.95,East,90,5.4,5.4,46,0.00,,,0.16,VWS V14.01,2013-10-20 18:30:00,
2013-10-20 14:34:00,60.5,39.6,29.95,East,90,3.4,3.4,46,0.00,,,0.16,VWS V14.01,2013-10-20 18:34:00,
2013-10-20 14:35:00,60.5,39.6,29.95,East,90,3.4,3.4,46,0.00,,,0.16,VWS V14.01,2013-10-20 18:35:00,
2013-10-20 14:36:00,60.5,40.7,29.95,ESE,112,3.4,3.4,48,0.00,,,0.16,VWS V14.01,2013-10-20 18:36:00,
2013-10-20 14:39:00,61.0,40.1,29.94,SE,135,5.4,5.4,46,0.00,,,0.16,VWS V14.01,2013-10-20 18:39:00,
2013-10-20 14:40:00,61.0,40.1,29.94,SE,135,5.4,5.4,46,0.00,,,0.16,VWS V14.01,2013-10-20 18:40:00,
2013-10-20 14:41:00,60.8,39.9,29.94,SSE,158,2.7,2.7,46,0.00,,,0.16,VWS V14.01,2013-10-20 18:41:00,
2013-10-20 14:42:00,60.8,40.5,29.94,East,90,2.7,2.7,47,0.00,,,0.16,VWS V14.01,2013-10-20 18:42:00,
2013-10-20 14:45:00,60.7,38.7,29.94,ESE,112,4.0,4.0,44,0.00,,,0.16,VWS V14.01,2013-10-20 18:45:00,
2013-10-20 14:46:00,60.7,38.7,29.94,ESE,112,4.0,4.0,44,0.00,,,0.16,VWS V14.01,2013-10-20 18:46:00,
2013-10-20 14:48:00,60.7,38.7,29.94,ESE,112,4.0,4.0,44,0.00,,,0.16,VWS V14.01,2013-10-20 18:48:00,
2013-10-20 14:50:00,60.5,38.5,29.94,SE,135,1.8,4.9,44,0.00,,,0.16,VWS V14.01,2013-10-20 18:50:00,
2013-10-20 14:51:00,60.5,38.5,29.94,SE,135,1.8,1.8,44,0.00,,,0.16,VWS V14.01,2013-10-20 18:51:00,
2013-10-20 14:54:00,60.5,38.5,29.94,ESE,112,3.6,3.6,44,0.00,,,0.16,VWS V14.01,2013-10-20 18:54:00,
2013-10-20 14:55:00,60.5,38.5,29.94,ESE,112,3.6,3.6,44,0.00,,,0.16,VWS V14.01,2013-10-20 18:55:00,
2013-10-20 14:56:00,60.5,38.5,29.94,ESE,112,3.6,3.6,44,0.00,,,0.16,VWS V14.01,2013-10-20 18:56:00,
2013-10-20 14:57:00,60.5,38.5,29.94,ESE,112,3.6,3.6,44,0.00,,,0.16,VWS V14.01,2013-10-20 18:57:00,
2013-10-20 14:59:00,60.8,39.3,29.94,ENE,68,3.4,3.4,45,0.00,,,0.16,VWS V14.01,2013-10-20 18:59:00,
2013-10-20 15:00:00,60.8,39.3,29.93,ENE,68,3.4,3.4,45,0.00,,,0.16,VWS V14.01,2013-10-20 19:00:00,
2013-10-20 15:01:00,60.8,39.3,29.93,ENE,68,3.4,3.4,45,0.00,,,0.16,VWS V14.01,2013-10-20 19:01:00,
2013-10-20 15:02:00,61.4,39.9,29.94,East,90,2.0,2.0,45,0.00,,,0.16,VWS V14.01,2013-10-20 19:02:00,
2013-10-20 15:05:00,61.6,39.5,29.94,SE,135,4.9,4.9,44,0.00,,,0.16,VWS V14.01,2013-10-20 19:05:00,
2013-10-20 15:06:00,61.6,39.5,29.94,SE,135,4.9,4.9,44,0.00,,,0.16,VWS V14.01,2013-10-20 19:06:00,
2013-10-20 15:08:00,61.2,38.5,29.93,ENE,68,1.8,1.8,43,0.00,,,0.16,VWS V14.01,2013-10-20 19:08:00,
2013-10-20 15:11:00,61.4,40.5,29.93,ESE,112,2.2,2.2,46,0.00,,,0.16,VWS V14.01,2013-10-20 19:11:00,
2013-10-20 15:12:00,61.4,40.5,29.94,ESE,112,2.2,2.2,46,0.00,,,0.16,VWS V14.01,2013-10-20 19:12:00,
2013-10-20 15:13:00,61.4,40.5,29.93,ESE,112,2.2,2.2,46,0.00,,,0.16,VWS V14.01,2013-10-20 19:13:00,
2013-10-20 15:16:00,61.2,39.1,29.93,ESE,112,5.4,5.4,44,0.00,,,0.16,VWS V14.01,2013-10-20 19:16:00,
2013-10-20 15:17:00,61.2,39.1,29.93,ESE,112,5.4,5.4,44,0.00,,,0.16,VWS V14.01,2013-10-20 19:17:00,
2013-10-20 15:18:00,61.2,39.1,29.93,ESE,112,5.4,5.4,44,0.00,,,0.16,VWS V14.01,2013-10-20 19:18:00,
2013-10-20 15:19:00,61.2,39.1,29.93,ESE,112,5.4,5.4,44,0.00,,,0.16,VWS V14.01,2013-10-20 19:19:00,
2013-10-20 15:21:00,61.0,39.5,29.93,SE,135,5.4,5.4,45,0.00,,,0.16,VWS V14.01,2013-10-20 19:21:00,
2013-10-20 15:22:00,61.0,39.5,29.93,SE,135,5.4,5.4,45,0.00,,,0.16,VWS V14.01,2013-10-20 19:22:00,
2013-10-20 15:23:00,61.0,39.5,29.93,SE,135,5.4,5.4,45,0.00,,,0.16,VWS V14.01,2013-10-20 19:23:00,
2013-10-20 15:24:00,60.7,38.7,29.93,SE,135,4.3,4.3,44,0.00,,,0.16,VWS V14.01,2013-10-20 19:24:00,
2013-10-20 15:26:00,60.5,37.9,29.93,SE,135,4.3,4.3,43,0.00,,,0.16,VWS V14.01,2013-10-20 19:26:00,
2013-10-20 15:27:00,60.5,37.9,29.93,SE,135,4.3,4.3,43,0.00,,,0.16,VWS V14.01,2013-10-20 19:27:00,
2013-10-20 15:28:00,60.7,35.6,29.93,SE,135,2.5,2.5,39,0.00,,,0.16,VWS V14.01,2013-10-20 19:28:00,
2013-10-20 15:30:00,60.7,35.6,29.93,SE,135,2.5,2.5,39,0.00,,,0.16,VWS V14.01,2013-10-20 19:30:00,
2013-10-20 15:32:00,60.7,35.6,29.93,SE,135,2.5,2.5,39,0.00,,,0.16,VWS V14.01,2013-10-20 19:32:00,
2013-10-20 15:33:00,60.8,38.8,29.93,SSE,158,2.5,2.5,44,0.00,,,0.16,VWS V14.01,2013-10-20 19:33:00,
2013-10-20 15:35:00,60.8,38.8,29.93,SE,135,1.3,1.3,44,0.00,,,0.16,VWS V14.01,2013-10-20 19:35:00,
2013-10-20 15:37:00,61.2,39.1,29.93,SE,135,4.9,4.9,44,0.00,,,0.16,VWS V14.01,2013-10-20 19:37:00,
2013-10-20 15:38:00,61.2,39.1,29.93,SE,135,4.9,4.9,44,0.00,,,0.16,VWS V14.01,2013-10-20 19:38:00,
2013-10-20 15:39:00,61.0,38.4,29.93,ESE,112,3.8,3.8,43,0.00,,,0.16,VWS V14.01,2013-10-20 19:39:00,
2013-10-20 15:40:00,60.8,37.0,29.93,SE,135,3.8,3.8,41,0.00,,,0.16,VWS V14.01,2013-10-20 19:40:00,
2013-10-20 15:42:00,60.8,37.6,29.93,SSE,158,2.0,2.0,42,0.00,,,0.16,VWS V14.01,2013-10-20 19:42:00,
2013-10-20 15:43:00,60.8,37.6,29.93,SSE,158,2.0,2.0,42,0.00,,,0.16,VWS V14.01,2013-10-20 19:43:00,
2013-10-20 15:44:00,60.8,37.6,29.93,SSE,158,2.0,2.0,42,0.00,,,0.16,VWS V14.01,2013-10-20 19:44:00,
2013-10-20 15:45:00,61.6,36.4,29.93,East,90,1.3,1.3,39,0.00,,,0.16,VWS V14.01,2013-10-20 19:45:00,
2013-10-20 15:48:00,61.6,36.4,29.93,East,90,1.3,1.3,39,0.00,,,0.16,VWS V14.01,2013-10-20 19:48:00,
2013-10-20 15:49:00,61.6,36.4,29.93,East,90,1.3,1.3,39,0.00,,,0.16,VWS V14.01,2013-10-20 19:49:00,
2013-10-20 15:50:00,62.3,37.0,29.93,SSW,202,1.8,1.8,39,0.00,,,0.16,VWS V14.01,2013-10-20 19:50:00,
2013-10-20 15:53:00,62.3,37.0,29.93,SSW,202,1.8,1.8,39,0.00,,,0.16,VWS V14.01,2013-10-20 19:53:00,
2013-10-20 15:54:00,62.3,36.4,29.93,SSW,202,1.3,1.8,38,0.00,,,0.16,VWS V14.01,2013-10-20 19:54:00,
2013-10-20 15:55:00,61.9,35.4,29.93,East,90,1.6,2.2,37,0.00,,,0.16,VWS V14.01,2013-10-20 19:55:00,
2013-10-20 15:58:00,62.1,36.9,29.93,South,180,1.1,1.1,39,0.00,,,0.16,VWS V14.01,2013-10-20 19:58:00,
2013-10-20 15:59:00,62.1,36.9,29.93,South,180,1.1,1.1,39,0.00,,,0.16,VWS V14.01,2013-10-20 19:59:00,
2013-10-20 16:00:00,62.3,36.4,29.93,South,180,1.3,1.3,38,0.00,,,0.16,VWS V14.01,2013-10-20 20:00:00,
2013-10-20 16:03:00,62.5,33.0,29.93,West,270,3.8,3.8,33,0.00,,,0.16,VWS V14.01,2013-10-20 20:03:00,
2013-10-20 16:04:00,62.3,32.9,29.93,WNW,292,2.2,2.2,33,0.00,,,0.16,VWS V14.01,2013-10-20 20:04:00,
2013-10-20 16:05:00,62.3,32.9,29.93,WNW,292,2.2,2.2,33,0.00,,,0.16,VWS V14.01,2013-10-20 20:05:00,
2013-10-20 16:06:00,62.3,32.9,29.93,WNW,292,2.2,2.2,33,0.00,,,0.16,VWS V14.01,2013-10-20 20:06:00,
2013-10-20 16:08:00,63.2,35.8,29.93,SSW,202,1.6,1.6,36,0.00,,,0.16,VWS V14.01,2013-10-20 20:08:00,
2013-10-20 16:09:00,63.2,35.8,29.93,SSW,202,1.6,1.6,36,0.00,,,0.16,VWS V14.01,2013-10-20 20:09:00,
2013-10-20 16:10:00,63.2,35.8,29.93,SSW,202,1.6,1.6,36,0.00,,,0.16,VWS V14.01,2013-10-20 20:10:00,
2013-10-20 16:11:00,63.2,35.8,29.93,SSW,202,1.6,1.6,36,0.00,,,0.16,VWS V14.01,2013-10-20 20:11:00,
2013-10-20 16:13:00,64.4,37.6,29.93,SSW,202,3.1,3.1,37,0.00,,,0.16,VWS V14.01,2013-10-20 20:13:00,
2013-10-20 16:14:00,64.4,37.6,29.93,SSW,202,2.9,2.9,37,0.00,,,0.16,VWS V14.01,2013-10-20 20:14:00,
2013-10-20 16:15:00,64.3,38.2,29.93,SSE,158,1.8,2.9,38,0.00,,,0.16,VWS V14.01,2013-10-20 20:15:00,
2013-10-20 16:16:00,63.7,36.3,29.93,East,90,0.4,0.4,36,0.00,,,0.16,VWS V14.01,2013-10-20 20:16:00,
2013-10-20 16:19:00,63.7,36.3,29.93,East,90,0.4,0.4,36,0.00,,,0.16,VWS V14.01,2013-10-20 20:19:00,
2013-10-20 16:20:00,63.2,33.6,29.93,WNW,292,3.8,3.8,33,0.00,,,0.16,VWS V14.01,2013-10-20 20:20:00,
2013-10-20 16:21:00,63.2,33.6,29.93,WNW,292,3.8,3.8,33,0.00,,,0.16,VWS V14.01,2013-10-20 20:21:00,
2013-10-20 16:24:00,62.6,34.6,29.93,NW,315,2.5,2.5,35,0.00,,,0.16,VWS V14.01,2013-10-20 20:24:00,
2013-10-20 16:25:00,62.6,34.6,29.93,NW,315,2.5,2.5,35,0.00,,,0.16,VWS V14.01,2013-10-20 20:25:00,
2013-10-20 16:26:00,62.6,35.3,29.93,SW,225,2.2,2.5,36,0.00,,,0.16,VWS V14.01,2013-10-20 20:26:00,
2013-10-20 16:29:00,62.6,33.1,29.93,South,180,3.4,3.4,33,0.00,,,0.16,VWS V14.01,2013-10-20 20:29:00,
2013-10-20 16:30:00,62.6,33.1,29.93,South,180,3.4,3.4,33,0.00,,,0.16,VWS V14.01,2013-10-20 20:30:00,
2013-10-20 16:31:00,62.5,35.9,29.93,NNW,338,2.2,3.4,37,0.00,,,0.16,VWS V14.01,2013-10-20 20:31:00,
2013-10-20 16:34:00,62.3,35.0,29.93,NNE,22,1.6,2.0,36,0.00,,,0.16,VWS V14.01,2013-10-20 20:34:00,
2013-10-20 16:35:00,62.5,35.9,29.93,WSW,248,1.8,1.8,37,0.00,,,0.16,VWS V14.01,2013-10-20 20:35:00,
2013-10-20 16:36:00,62.5,35.9,29.93,WSW,248,1.8,1.8,37,0.00,,,0.16,VWS V14.01,2013-10-20 20:36:00,
2013-10-20 16:37:00,62.5,35.9,29.93,WSW,248,1.8,1.8,37,0.00,,,0.16,VWS V14.01,2013-10-20 20:37:00,
2013-10-20 16:39:00,63.2,37.9,29.93,ENE,68,0.2,0.2,39,0.00,,,0.16,VWS V14.01,2013-10-20 20:39:00,
2013-10-20 16:41:00,63.2,37.9,29.93,ENE,68,0.2,0.2,39,0.00,,,0.16,VWS V14.01,2013-10-20 20:41:00,
2013-10-20 16:42:00,63.5,36.8,29.93,NNW,338,0.4,0.4,37,0.00,,,0.16,VWS V14.01,2013-10-20 20:42:00,
2013-10-20 16:44:00,63.5,33.1,29.93,WNW,292,1.6,1.8,32,0.00,,,0.16,VWS V14.01,2013-10-20 20:44:00,
2013-10-20 16:46:00,63.4,36.7,29.93,NW,315,1.8,2.5,37,0.00,,,0.16,VWS V14.01,2013-10-20 20:46:00,
2013-10-20 16:47:00,63.4,37.4,29.93,WNW,292,4.5,4.5,38,0.00,,,0.16,VWS V14.01,2013-10-20 20:47:00,
2013-10-20 16:49:00,63.0,33.5,29.93,West,270,2.2,2.2,33,0.00,,,0.16,VWS V14.01,2013-10-20 20:49:00,
2013-10-20 16:51:00,63.0,33.5,29.93,West,270,2.2,2.2,33,0.00,,,0.16,VWS V14.01,2013-10-20 20:51:00,
2013-10-20 16:52:00,62.8,34.0,29.93,NW,315,0.7,2.2,34,0.00,,,0.16,VWS V14.01,2013-10-20 20:52:00,
2013-10-20 16:54:00,63.0,37.0,29.93,SSW,202,0.4,1.1,38,0.00,,,0.16,VWS V14.01,2013-10-20 20:54:00,
2013-10-20 16:56:00,63.0,37.0,29.93,North,0,0.0,0.4,38,0.00,,,0.16,VWS V14.01,2013-10-20 20:56:00,
2013-10-20 16:57:00,63.0,37.0,29.93,WNW,292,0.0,0.0,38,0.00,,,0.16,VWS V14.01,2013-10-20 20:57:00,
2013-10-20 17:00:00,63.4,38.0,29.93,WSW,248,1.6,1.6,39,0.00,,,0.16,VWS V14.01,2013-10-20 21:00:00,
2013-10-20 17:02:00,63.2,37.9,29.93,WNW,292,0.9,1.6,39,0.00,,,0.16,VWS V14.01,2013-10-20 21:02:00,
2013-10-20 17:05:00,61.9,38.6,29.93,SW,225,0.9,0.9,42,0.00,,,0.16,VWS V14.01,2013-10-20 21:05:00,
2013-10-20 17:07:00,61.2,39.1,29.93,SW,225,1.3,1.3,44,0.00,,,0.16,VWS V14.01,2013-10-20 21:07:00,
2013-10-20 17:11:00,61.2,39.1,29.93,SW,225,1.3,1.3,44,0.00,,,0.16,VWS V14.01,2013-10-20 21:11:00,
2013-10-20 17:12:00,58.7,38.5,29.93,SW,225,0.0,0.0,47,0.00,,,0.16,VWS V14.01,2013-10-20 21:12:00,
2013-10-20 17:16:00,56.5,37.6,29.93,WSW,248,0.9,0.9,49,0.00,,,0.16,VWS V14.01,2013-10-20 21:16:00,
2013-10-20 17:17:00,56.3,39.4,29.93,NW,315,0.9,0.9,53,0.00,,,0.16,VWS V14.01,2013-10-20 21:17:00,
2013-10-20 17:18:00,56.3,39.4,29.93,NW,315,0.9,0.9,53,0.00,,,0.16,VWS V14.01,2013-10-20 21:18:00,
2013-10-20 17:21:00,55.3,37.5,29.93,NW,315,0.0,0.9,51,0.00,,,0.16,VWS V14.01,2013-10-20 21:21:00,
2013-10-20 17:22:00,54.9,37.6,29.93,NW,315,0.0,0.9,52,0.00,,,0.16,VWS V14.01,2013-10-20 21:22:00,
2013-10-20 17:24:00,54.9,37.6,29.93,NW,315,0.0,0.0,52,0.00,,,0.16,VWS V14.01,2013-10-20 21:24:00,
2013-10-20 17:26:00,54.0,37.3,29.93,NNE,22,0.4,0.4,53,0.00,,,0.16,VWS V14.01,2013-10-20 21:26:00,
2013-10-20 17:27:00,53.8,36.6,29.93,West,270,0.0,0.4,52,0.00,,,0.16,VWS V14.01,2013-10-20 21:27:00,
2013-10-20 17:28:00,53.8,36.6,29.93,West,270,0.0,0.4,52,0.00,,,0.16,VWS V14.01,2013-10-20 21:28:00,
2013-10-20 17:29:00,53.8,36.1,29.93,West,270,0.4,0.4,51,0.00,,,0.16,VWS V14.01,2013-10-20 21:29:00,
2013-10-20 17:31:00,53.5,40.4,29.93,NW,315,1.1,1.1,61,0.00,,,0.16,VWS V14.01,2013-10-20 21:31:00,
2013-10-20 17:32:00,53.5,40.4,29.93,NW,315,0.7,0.7,61,0.00,,,0.16,VWS V14.01,2013-10-20 21:32:00,
2013-10-20 17:33:00,53.5,40.4,29.93,NW,315,0.7,0.7,61,0.00,,,0.16,VWS V14.01,2013-10-20 21:33:00,
2013-10-20 17:35:00,52.7,38.8,29.93,NW,315,0.7,0.7,59,0.00,,,0.16,VWS V14.01,2013-10-20 21:35:00,
2013-10-20 17:36:00,52.7,38.8,29.93,NW,315,0.7,0.7,59,0.00,,,0.16,VWS V14.01,2013-10-20 21:36:00,
2013-10-20 17:37:00,52.7,38.8,29.93,NW,315,0.7,0.7,59,0.00,,,0.16,VWS V14.01,2013-10-20 21:37:00,
2013-10-20 17:38:00,52.7,38.8,29.93,NW,315,0.7,0.7,59,0.00,,,0.16,VWS V14.01,2013-10-20 21:38:00,
2013-10-20 17:40:00,52.2,39.2,29.93,WNW,292,0.0,0.4,61,0.00,,,0.16,VWS V14.01,2013-10-20 21:40:00,
2013-10-20 17:41:00,52.2,40.4,29.93,WNW,292,1.1,1.1,64,0.00,,,0.16,VWS V14.01,2013-10-20 21:41:00,
2013-10-20 17:42:00,52.2,40.4,29.93,WNW,292,1.1,1.1,64,0.00,,,0.16,VWS V14.01,2013-10-20 21:42:00,
2013-10-20 17:43:00,52.2,40.4,29.93,WNW,292,1.1,1.1,64,0.00,,,0.16,VWS V14.01,2013-10-20 21:43:00,
2013-10-20 17:44:00,52.2,40.4,29.93,WNW,292,1.1,1.1,64,0.00,,,0.16,VWS V14.01,2013-10-20 21:44:00,
2013-10-20 17:45:00,51.5,39.7,29.93,WNW,292,1.1,1.1,64,0.00,,,0.16,VWS V14.01,2013-10-20 21:45:00,
2013-10-20 17:47:00,51.3,40.7,29.93,WNW,292,2.0,2.0,67,0.00,,,0.16,VWS V14.01,2013-10-20 21:47:00,
2013-10-20 17:48:00,51.3,40.7,29.93,WNW,292,2.0,2.0,67,0.00,,,0.16,VWS V14.01,2013-10-20 21:48:00,
2013-10-20 17:49:00,51.3,40.7,29.93,WNW,292,2.0,2.0,67,0.00,,,0.16,VWS V14.01,2013-10-20 21:49:00,
2013-10-20 17:50:00,51.1,39.4,29.93,WNW,292,1.6,2.0,64,0.00,,,0.16,VWS V14.01,2013-10-20 21:50:00,
2013-10-20 17:53:00,51.1,39.4,29.93,WNW,292,1.6,1.6,64,0.00,,,0.16,VWS V14.01,2013-10-20 21:53:00,
2013-10-20 17:54:00,50.8,39.9,29.93,WNW,292,1.1,1.1,66,0.00,,,0.16,VWS V14.01,2013-10-20 21:54:00,
2013-10-20 17:55:00,50.8,39.9,29.93,WNW,292,1.1,1.1,66,0.00,,,0.16,VWS V14.01,2013-10-20 21:55:00,
2013-10-20 17:58:00,50.4,40.6,29.93,WNW,292,1.8,1.8,69,0.00,,,0.16,VWS V14.01,2013-10-20 21:58:00,
2013-10-20 17:59:00,50.0,39.9,29.94,WNW,292,1.8,1.8,68,0.00,,,0.16,VWS V14.01,2013-10-20 21:59:00,
2013-10-20 18:00:00,50.0,39.9,29.94,WNW,292,0.9,0.9,68,0.00,,,0.16,VWS V14.01,2013-10-20 22:00:00,
2013-10-20 18:01:00,50.0,40.2,29.94,West,270,1.3,1.3,69,0.00,,,0.16,VWS V14.01,2013-10-20 22:01:00,
2013-10-20 18:03:00,49.9,39.8,29.94,NW,315,1.1,1.1,68,0.00,,,0.16,VWS V14.01,2013-10-20 22:03:00,
2013-10-20 18:04:00,49.9,39.8,29.94,NW,315,1.1,1.1,68,0.00,,,0.16,VWS V14.01,2013-10-20 22:04:00,
2013-10-20 18:05:00,49.9,39.8,29.94,NW,315,1.1,1.1,68,0.00,,,0.16,VWS V14.01,2013-10-20 22:05:00,
2013-10-20 18:07:00,49.3,39.9,29.93,WNW,292,1.3,1.3,70,0.00,,,0.16,VWS V14.01,2013-10-20 22:07:00,
2013-10-20 18:08:00,49.3,40.3,29.94,WNW,292,1.1,1.1,71,0.00,,,0.16,VWS V14.01,2013-10-20 22:08:00,
2013-10-20 18:09:00,49.3,40.3,29.94,WNW,292,1.3,1.3,71,0.00,,,0.16,VWS V14.01,2013-10-20 22:09:00,
2013-10-20 18:10:00,49.3,40.3,29.94,WNW,292,1.3,1.3,71,0.00,,,0.16,VWS V14.01,2013-10-20 22:10:00,
2013-10-20 18:11:00,49.0,40.4,29.94,West,270,1.3,1.3,72,0.00,,,0.16,VWS V14.01,2013-10-20 22:11:00,
2013-10-20 18:13:00,48.8,40.2,29.94,West,270,0.2,1.3,72,0.00,,,0.16,VWS V14.01,2013-10-20 22:13:00,
2013-10-20 18:14:00,48.8,40.2,29.94,West,270,0.2,1.3,72,0.00,,,0.16,VWS V14.01,2013-10-20 22:14:00,
2013-10-20 18:15:00,48.6,40.3,29.94,West,270,0.0,0.0,73,0.00,,,0.16,VWS V14.01,2013-10-20 22:15:00,
2013-10-20 18:16:00,48.4,40.2,29.94,NW,315,1.1,1.1,73,0.00,,,0.16,VWS V14.01,2013-10-20 22:16:00,
2013-10-20 18:18:00,48.2,41.0,29.94,WNW,292,0.7,0.7,76,0.00,,,0.16,VWS V14.01,2013-10-20 22:18:00,
2013-10-20 18:19:00,48.2,41.0,29.94,WNW,292,0.7,0.7,76,0.00,,,0.16,VWS V14.01,2013-10-20 22:19:00,
2013-10-20 18:20:00,48.2,40.7,29.94,NNW,338,0.7,0.7,75,0.00,,,0.16,VWS V14.01,2013-10-20 22:20:00,
2013-10-20 18:21:00,48.2,40.7,29.94,NNW,338,0.7,0.7,75,0.00,,,0.16,VWS V14.01,2013-10-20 22:21:00,
2013-10-20 18:22:00,48.2,40.7,29.94,NNW,338,0.7,0.7,75,0.00,,,0.16,VWS V14.01,2013-10-20 22:22:00,
2013-10-20 18:23:00,47.7,40.2,29.94,WNW,292,1.1,1.1,75,0.00,,,0.16,VWS V14.01,2013-10-20 22:23:00,
2013-10-20 18:24:00,47.7,40.2,29.94,WNW,292,1.1,1.1,75,0.00,,,0.16,VWS V14.01,2013-10-20 22:24:00,
2013-10-20 18:25:00,47.5,40.0,29.94,WNW,292,0.9,0.9,75,0.00,,,0.16,VWS V14.01,2013-10-20 22:25:00,
2013-10-20 18:26:00,47.5,40.0,29.94,West,270,1.1,1.1,75,0.00,,,0.16,VWS V14.01,2013-10-20 22:26:00,
2013-10-20 18:27:00,47.5,40.0,29.94,West,270,1.1,1.1,75,0.00,,,0.16,VWS V14.01,2013-10-20 22:27:00,
2013-10-20 18:28:00,47.5,40.3,29.94,WNW,292,0.4,0.4,76,0.00,,,0.16,VWS V14.01,2013-10-20 22:28:00,
2013-10-20 18:29:00,47.5,40.3,29.94,WNW,292,0.4,0.4,76,0.00,,,0.16,VWS V14.01,2013-10-20 22:29:00,
2013-10-20 18:31:00,47.3,40.5,29.94,WNW,292,0.7,0.7,77,0.00,,,0.16,VWS V14.01,2013-10-20 22:31:00,
2013-10-20 18:32:00,47.2,40.4,29.94,WNW,292,0.9,0.9,77,0.00,,,0.16,VWS V14.01,2013-10-20 22:32:00,
2013-10-20 18:34:00,47.2,40.4,29.94,WNW,292,0.9,0.9,77,0.00,,,0.16,VWS V14.01,2013-10-20 22:34:00,
2013-10-20 18:36:00,47.0,40.2,29.95,WNW,292,0.7,1.1,77,0.00,,,0.16,VWS V14.01,2013-10-20 22:36:00,
2013-10-20 18:37:00,46.8,40.0,29.95,WNW,292,1.3,1.3,77,0.00,,,0.16,VWS V14.01,2013-10-20 22:37:00,
2013-10-20 18:39:00,46.8,40.0,29.95,West,270,0.4,0.4,77,0.00,,,0.16,VWS V14.01,2013-10-20 22:39:00,
2013-10-20 18:40:00,46.8,40.0,29.95,West,270,0.4,0.4,77,0.00,,,0.16,VWS V14.01,2013-10-20 22:40:00,
2013-10-20 18:41:00,46.8,40.0,29.95,West,270,0.4,0.4,77,0.00,,,0.16,VWS V14.01,2013-10-20 22:41:00,
2013-10-20 18:42:00,46.6,39.5,29.95,WNW,292,0.4,0.4,76,0.00,,,0.16,VWS V14.01,2013-10-20 22:42:00,
2013-10-20 18:44:00,46.4,39.6,29.95,NW,315,0.2,0.4,77,0.00,,,0.16,VWS V14.01,2013-10-20 22:44:00,
2013-10-20 18:45:00,46.4,39.6,29.95,NW,315,0.2,0.2,77,0.00,,,0.16,VWS V14.01,2013-10-20 22:45:00,
2013-10-20 18:46:00,46.4,39.6,29.95,NW,315,0.2,0.2,77,0.00,,,0.16,VWS V14.01,2013-10-20 22:46:00,
2013-10-20 18:47:00,46.1,39.6,29.95,West,270,1.1,1.1,78,0.00,,,0.16,VWS V14.01,2013-10-20 22:47:00,
2013-10-20 18:49:00,45.9,39.1,29.95,WNW,292,0.7,0.7,77,0.00,,,0.16,VWS V14.01,2013-10-20 22:49:00,
2013-10-20 18:50:00,45.9,39.4,29.95,West,270,1.1,1.1,78,0.00,,,0.16,VWS V14.01,2013-10-20 22:50:00,
2013-10-20 18:51:00,45.9,38.4,29.94,WNW,292,1.1,1.1,75,0.00,,,0.16,VWS V14.01,2013-10-20 22:51:00,
2013-10-20 18:52:00,45.7,37.9,29.95,WNW,292,0.9,1.1,74,0.00,,,0.16,VWS V14.01,2013-10-20 22:52:00,
2013-10-20 18:54:00,45.9,38.4,29.95,WNW,292,0.9,0.9,75,0.00,,,0.16,VWS V14.01,2013-10-20 22:54:00,
2013-10-20 18:55:00,45.7,38.9,29.95,WNW,292,0.7,0.7,77,0.00,,,0.16,VWS V14.01,2013-10-20 22:55:00,
2013-10-20 18:56:00,45.7,38.9,29.94,WNW,292,0.7,0.7,77,0.00,,,0.16,VWS V14.01,2013-10-20 22:56:00,
2013-10-20 18:57:00,45.5,38.7,29.95,West,270,0.4,0.4,77,0.00,,,0.16,VWS V14.01,2013-10-20 22:57:00,
2013-10-20 18:58:00,45.4,38.6,29.95,West,270,0.7,0.7,77,0.00,,,0.16,VWS V14.01,2013-10-20 22:58:00,
2013-10-20 19:00:00,45.4,38.6,29.95,WNW,292,0.7,0.7,77,0.00,,,0.16,VWS V14.01,2013-10-20 23:00:00,
2013-10-20 19:01:00,45.4,38.6,29.95,WNW,292,0.4,0.7,77,0.00,,,0.16,VWS V14.01,2013-10-20 23:01:00,
2013-10-20 19:02:00,45.2,38.4,29.94,WNW,292,0.2,0.2,77,0.00,,,0.16,VWS V14.01,2013-10-20 23:02:00,
2013-10-20 19:03:00,45.0,37.9,29.95,NW,315,0.0,0.2,76,0.00,,,0.16,VWS V14.01,2013-10-20 23:03:00,
2013-10-20 19:05:00,45.0,38.2,29.95,NW,315,0.7,0.7,77,0.00,,,0.16,VWS V14.01,2013-10-20 23:05:00,
2013-10-20 19:06:00,44.8,38.0,29.95,NW,315,0.2,0.2,77,0.00,,,0.16,VWS V14.01,2013-10-20 23:06:00,
2013-10-20 19:07:00,44.8,38.0,29.95,NW,315,0.0,0.2,77,0.00,,,0.16,VWS V14.01,2013-10-20 23:07:00,
2013-10-20 19:08:00,44.8,38.0,29.95,NW,315,0.0,0.2,77,0.00,,,0.16,VWS V14.01,2013-10-20 23:08:00,
2013-10-20 19:10:00,44.5,37.4,29.95,North,0,0.0,0.0,76,0.00,,,0.16,VWS V14.01,2013-10-20 23:10:00,
2013-10-20 19:11:00,44.5,37.4,29.95,North,0,0.0,0.0,76,0.00,,,0.16,VWS V14.01,2013-10-20 23:11:00,
2013-10-20 19:12:00,44.3,37.2,29.95,North,0,0.0,0.0,76,0.00,,,0.16,VWS V14.01,2013-10-20 23:12:00,
2013-10-20 19:13:00,44.3,37.2,29.95,North,0,0.0,0.0,76,0.00,,,0.16,VWS V14.01,2013-10-20 23:13:00,
2013-10-20 19:15:00,44.3,37.6,29.95,NW,315,0.4,0.4,77,0.00,,,0.16,VWS V14.01,2013-10-20 23:15:00,
2013-10-20 19:17:00,44.3,37.6,29.95,NW,315,0.4,0.4,77,0.00,,,0.16,VWS V14.01,2013-10-20 23:17:00,
2013-10-20 19:18:00,44.3,38.5,29.95,NW,315,0.4,0.4,80,0.00,,,0.16,VWS V14.01,2013-10-20 23:18:00,
2013-10-20 19:19:00,44.3,38.5,29.95,NW,315,0.7,0.7,80,0.00,,,0.16,VWS V14.01,2013-10-20 23:19:00,
2013-10-20 19:20:00,44.3,37.9,29.95,WNW,292,0.9,0.9,78,0.00,,,0.16,VWS V14.01,2013-10-20 23:20:00,
2013-10-20 19:21:00,44.3,37.9,29.95,WNW,292,0.9,0.9,78,0.00,,,0.16,VWS V14.01,2013-10-20 23:21:00,
2013-10-20 19:22:00,44.1,37.4,29.95,WNW,292,0.4,0.4,77,0.00,,,0.16,VWS V14.01,2013-10-20 23:22:00,
2013-10-20 19:23:00,44.3,37.6,29.95,WNW,292,0.7,0.7,77,0.00,,,0.16,VWS V14.01,2013-10-20 23:23:00,
2013-10-20 19:25:00,44.3,37.6,29.95,WNW,292,0.4,0.4,77,0.00,,,0.16,VWS V14.01,2013-10-20 23:25:00,
2013-10-20 19:26:00,44.1,37.4,29.95,WNW,292,0.2,0.2,77,0.00,,,0.16,VWS V14.01,2013-10-20 23:26:00,
2013-10-20 19:27:00,43.9,37.2,29.95,WNW,292,0.0,0.2,77,0.00,,,0.16,VWS V14.01,2013-10-20 23:27:00,
2013-10-20 19:28:00,43.9,37.2,29.95,WNW,292,0.0,0.2,77,0.00,,,0.16,VWS V14.01,2013-10-20 23:28:00,
2013-10-20 19:29:00,43.9,37.2,29.95,WNW,292,0.0,0.0,77,0.00,,,0.16,VWS V14.01,2013-10-20 23:29:00,
2013-10-20 19:30:00,43.6,36.9,29.95,NW,315,0.0,0.0,77,0.00,,,0.16,VWS V14.01,2013-10-20 23:30:00,
2013-10-20 19:31:00,43.6,36.9,29.95,NW,315,0.0,0.0,77,0.00,,,0.16,VWS V14.01,2013-10-20 23:31:00,
2013-10-20 19:32:00,43.4,36.7,29.95,NNW,338,1.1,1.1,77,0.00,,,0.16,VWS V14.01,2013-10-20 23:32:00,
2013-10-20 19:33:00,43.4,36.7,29.95,NNW,338,1.1,1.1,77,0.00,,,0.16,VWS V14.01,2013-10-20 23:33:00,
2013-10-20 19:34:00,43.2,36.5,29.95,NNW,338,1.1,1.1,77,0.00,,,0.16,VWS V14.01,2013-10-20 23:34:00,
2013-10-20 19:35:00,43.2,37.8,29.96,NW,315,1.1,1.1,81,0.00,,,0.16,VWS V14.01,2013-10-20 23:35:00,
2013-10-20 19:36:00,43.2,38.7,29.95,WNW,292,1.8,1.8,84,0.00,,,0.16,VWS V14.01,2013-10-20 23:36:00,
2013-10-20 19:38:00,43.2,38.4,29.96,WNW,292,1.3,1.3,83,0.00,,,0.16,VWS V14.01,2013-10-20 23:38:00,
2013-10-20 19:39:00,43.2,38.7,29.96,West,270,1.1,1.3,84,0.00,,,0.16,VWS V14.01,2013-10-20 23:39:00,
2013-10-20 19:41:00,43.2,38.7,29.96,West,270,1.3,1.3,84,0.00,,,0.16,VWS V14.01,2013-10-20 23:41:00,
2013-10-20 19:43:00,43.2,39.0,29.96,West,270,0.4,0.9,85,0.00,,,0.16,VWS V14.01,2013-10-20 23:43:00,
2013-10-20 19:44:00,43.0,38.5,29.96,West,270,0.9,0.9,84,0.00,,,0.16,VWS V14.01,2013-10-20 23:44:00,
2013-10-20 19:46:00,43.0,38.5,29.96,WNW,292,0.4,0.9,84,0.00,,,0.16,VWS V14.01,2013-10-20 23:46:00,
2013-10-20 19:47:00,42.8,38.3,29.96,WNW,292,0.4,0.4,84,0.00,,,0.16,VWS V14.01,2013-10-20 23:47:00,
2013-10-20 19:49:00,42.8,38.6,29.96,WNW,292,0.4,0.4,85,0.00,,,0.16,VWS V14.01,2013-10-20 23:49:00,
2013-10-20 19:50:00,42.7,38.5,29.96,NW,315,0.4,0.4,85,0.00,,,0.16,VWS V14.01,2013-10-20 23:50:00,
2013-10-20 19:51:00,42.5,38.0,29.96,NW,315,0.4,0.4,84,0.00,,,0.16,VWS V14.01,2013-10-20 23:51:00,
2013-10-20 19:52:00,42.5,37.7,29.96,NW,315,0.7,0.7,83,0.00,,,0.16,VWS V14.01,2013-10-20 23:52:00,
2013-10-20 19:54:00,42.5,37.1,29.96,NW,315,0.9,0.9,81,0.00,,,0.16,VWS V14.01,2013-10-20 23:54:00,
2013-10-20 19:55:00,42.3,36.9,29.96,NW,315,0.4,0.4,81,0.00,,,0.16,VWS V14.01,2013-10-20 23:55:00,
2013-10-20 19:56:00,42.3,36.9,29.96,NNW,338,0.2,0.4,81,0.00,,,0.16,VWS V14.01,2013-10-20 23:56:00,
2013-10-20 19:57:00,42.1,36.7,29.96,NNW,338,0.0,0.0,81,0.00,,,0.16,VWS V14.01,2013-10-20 23:57:00,
2013-10-20 19:59:00,42.1,36.7,29.96,NNW,338,0.0,0.0,81,0.00,,,0.16,VWS V14.01,2013-10-20 23:59:00,
2013-10-20 20:01:00,41.9,37.7,29.96,NW,315,0.7,0.7,85,0.00,,,0.16,VWS V14.01,2013-10-21 00:01:00,
2013-10-20 20:02:00,41.9,37.7,29.96,WNW,292,0.4,0.4,85,0.00,,,0.16,VWS V14.01,2013-10-21 00:02:00,
2013-10-20 20:04:00,41.9,37.7,29.97,WNW,292,0.0,0.0,85,0.00,,,0.16,VWS V14.01,2013-10-21 00:04:00,
2013-10-20 20:06:00,41.8,37.3,29.97,WNW,292,0.4,0.4,84,0.00,,,0.16,VWS V14.01,2013-10-21 00:06:00,
2013-10-20 20:07:00,41.6,36.5,29.97,NW,315,0.0,0.4,82,0.00,,,0.16,VWS V14.01,2013-10-21 00:07:00,
2013-10-20 20:08:00,41.6,36.5,29.97,NW,315,0.0,0.4,82,0.00,,,0.16,VWS V14.01,2013-10-21 00:08:00,
2013-10-20 20:09:00,41.4,37.2,29.97,WNW,292,0.4,0.4,85,0.00,,,0.16,VWS V14.01,2013-10-21 00:09:00,
2013-10-20 20:12:00,41.2,37.3,29.97,WNW,292,0.4,0.4,86,0.00,,,0.16,VWS V14.01,2013-10-21 00:12:00,
2013-10-20 20:13:00,41.2,37.3,29.97,WNW,292,0.7,0.7,86,0.00,,,0.16,VWS V14.01,2013-10-21 00:13:00,
2013-10-20 20:14:00,41.2,37.3,29.97,NW,315,0.4,0.4,86,0.00,,,0.16,VWS V14.01,2013-10-21 00:14:00,
2013-10-20 20:17:00,41.2,36.7,29.97,NNW,338,0.4,0.4,84,0.00,,,0.16,VWS V14.01,2013-10-21 00:17:00,
2013-10-20 20:18:00,41.2,36.7,29.97,NNW,338,0.4,0.4,84,0.00,,,0.16,VWS V14.01,2013-10-21 00:18:00,
2013-10-20 20:20:00,41.2,36.4,29.97,North,0,0.4,0.4,83,0.00,,,0.16,VWS V14.01,2013-10-21 00:20:00,
2013-10-20 20:22:00,41.2,37.0,29.97,NNW,338,0.0,0.0,85,0.00,,,0.16,VWS V14.01,2013-10-21 00:22:00,
2013-10-20 20:24:00,41.2,37.0,29.97,NNW,338,0.0,0.0,85,0.00,,,0.16,VWS V14.01,2013-10-21 00:24:00,
2013-10-20 20:25:00,41.2,37.0,29.97,NNW,338,0.0,0.0,85,0.00,,,0.16,VWS V14.01,2013-10-21 00:25:00,
2013-10-20 20:27:00,41.2,36.7,29.97,West,270,0.7,0.9,84,0.00,,,0.16,VWS V14.01,2013-10-21 00:27:00,
2013-10-20 20:28:00,41.2,36.7,29.97,West,270,0.7,0.9,84,0.00,,,0.16,VWS V14.01,2013-10-21 00:28:00,
2013-10-20 20:29:00,41.2,37.0,29.97,WNW,292,0.4,0.7,85,0.00,,,0.16,VWS V14.01,2013-10-21 00:29:00,
2013-10-20 20:30:00,41.2,37.0,29.97,WNW,292,0.4,0.7,85,0.00,,,0.16,VWS V14.01,2013-10-21 00:30:00,
2013-10-20 20:32:00,41.0,36.8,29.97,West,270,0.2,0.2,85,0.00,,,0.16,VWS V14.01,2013-10-21 00:32:00,
2013-10-20 20:33:00,41.0,36.8,29.97,West,270,0.2,0.2,85,0.00,,,0.16,VWS V14.01,2013-10-21 00:33:00,
2013-10-20 20:35:00,40.9,37.3,29.97,WSW,248,0.0,0.0,87,0.00,,,0.16,VWS V14.01,2013-10-21 00:35:00,
2013-10-20 20:38:00,40.7,37.1,29.97,West,270,0.0,0.0,87,0.00,,,0.16,VWS V14.01,2013-10-21 00:38:00,
2013-10-20 20:40:00,40.5,36.7,29.98,NW,315,0.9,0.9,86,0.00,,,0.16,VWS V14.01,2013-10-21 00:40:00,
2013-10-20 20:43:00,40.3,36.8,29.97,NW,315,0.0,0.0,87,0.00,,,0.16,VWS V14.01,2013-10-21 00:43:00,
2013-10-20 20:45:00,40.1,36.3,29.97,NW,315,0.0,0.0,86,0.00,,,0.16,VWS V14.01,2013-10-21 00:45:00,
2013-10-20 20:48:00,40.0,36.7,29.97,West,270,0.0,0.0,88,0.00,,,0.16,VWS V14.01,2013-10-21 00:48:00,
2013-10-20 20:49:00,40.0,36.7,29.97,West,270,0.0,0.0,88,0.00,,,0.16,VWS V14.01,2013-10-21 00:49:00,
2013-10-20 20:51:00,40.0,36.7,29.98,West,270,0.0,0.0,88,0.00,,,0.16,VWS V14.01,2013-10-21 00:51:00,
2013-10-20 20:53:00,40.0,36.5,29.98,WNW,292,0.0,0.0,87,0.00,,,0.16,VWS V14.01,2013-10-21 00:53:00,
2013-10-20 20:54:00,40.0,36.5,29.98,WNW,292,0.0,0.0,87,0.00,,,0.16,VWS V14.01,2013-10-21 00:54:00,
2013-10-20 20:55:00,40.1,36.5,29.98,WNW,292,0.0,0.0,87,0.00,,,0.16,VWS V14.01,2013-10-21 00:55:00,
2013-10-20 20:56:00,40.0,36.5,29.98,WNW,292,0.0,0.0,87,0.00,,,0.16,VWS V14.01,2013-10-21 00:56:00,
2013-10-20 20:58:00,40.0,36.5,29.98,WNW,292,0.0,0.0,87,0.00,,,0.16,VWS V14.01,2013-10-21 00:58:00,
2013-10-20 20:59:00,40.0,36.5,29.98,WNW,292,0.0,0.0,87,0.00,,,0.16,VWS V14.01,2013-10-21 00:59:00,
2013-10-20 21:00:00,40.0,35.9,29.98,NW,315,0.0,0.0,85,0.00,,,0.16,VWS V14.01,2013-10-21 01:00:00,
2013-10-20 21:01:00,39.8,36.0,29.98,NW,315,0.0,0.0,86,0.00,,,0.16,VWS V14.01,2013-10-21 01:01:00,
2013-10-20 21:03:00,39.6,36.1,29.98,NW,315,0.0,0.0,87,0.00,,,0.16,VWS V14.01,2013-10-21 01:03:00,
2013-10-20 21:04:00,39.6,36.1,29.98,NW,315,0.0,0.0,87,0.00,,,0.16,VWS V14.01,2013-10-21 01:04:00,
2013-10-20 21:06:00,39.6,35.5,29.98,North,0,0.0,0.0,85,0.00,,,0.16,VWS V14.01,2013-10-21 01:06:00,
2013-10-20 21:09:00,39.4,35.3,29.98,North,0,0.0,0.0,85,0.00,,,0.16,VWS V14.01,2013-10-21 01:09:00,
2013-10-20 21:11:00,39.4,35.9,29.98,NNW,338,0.0,0.0,87,0.00,,,0.16,VWS V14.01,2013-10-21 01:11:00,
2013-10-20 21:12:00,39.4,35.9,29.98,NNW,338,0.0,0.0,87,0.00,,,0.16,VWS V14.01,2013-10-21 01:12:00,
2013-10-20 21:14:00,39.2,36.2,29.98,WNW,292,0.7,0.7,89,0.00,,,0.16,VWS V14.01,2013-10-21 01:14:00,
2013-10-20 21:16:00,39.2,36.2,29.98,NW,315,0.7,0.7,89,0.00,,,0.16,VWS V14.01,2013-10-21 01:16:00,
2013-10-20 21:17:00,39.2,36.0,29.98,NW,315,0.9,0.9,88,0.00,,,0.16,VWS V14.01,2013-10-21 01:17:00,
2013-10-20 21:19:00,39.2,36.2,29.98,NW,315,0.7,0.7,89,0.00,,,0.16,VWS V14.01,2013-10-21 01:19:00,
2013-10-20 21:21:00,39.1,36.4,29.98,WNW,292,0.9,0.9,90,0.00,,,0.16,VWS V14.01,2013-10-21 01:21:00,
2013-10-20 21:22:00,39.1,36.4,29.98,WNW,292,0.9,0.9,90,0.00,,,0.16,VWS V14.01,2013-10-21 01:22:00,
2013-10-20 21:24:00,39.1,36.4,29.98,West,270,0.9,0.9,90,0.00,,,0.16,VWS V14.01,2013-10-21 01:24:00,
2013-10-20 21:25:00,39.1,36.4,29.98,West,270,0.9,0.9,90,0.00,,,0.16,VWS V14.01,2013-10-21 01:25:00,
2013-10-20 21:26:00,39.2,36.2,29.98,West,270,0.4,0.4,89,0.00,,,0.16,VWS V14.01,2013-10-21 01:26:00,
2013-10-20 21:27:00,39.2,36.2,29.98,WNW,292,0.0,0.4,89,0.00,,,0.16,VWS V14.01,2013-10-21 01:27:00,
2013-10-20 21:29:00,38.9,35.4,29.98,NW,315,0.0,0.0,87,0.00,,,0.16,VWS V14.01,2013-10-21 01:29:00,
2013-10-20 21:30:00,38.9,35.4,29.98,NW,315,0.0,0.0,87,0.00,,,0.16,VWS V14.01,2013-10-21 01:30:00,
2013-10-20 21:31:00,38.9,35.7,29.98,NW,315,0.2,0.2,88,0.00,,,0.16,VWS V14.01,2013-10-21 01:31:00,
2013-10-20 21:33:00,38.7,36.0,29.98,NW,315,0.0,0.0,90,0.00,,,0.16,VWS V14.01,2013-10-21 01:33:00,
2013-10-20 21:34:00,38.7,36.0,29.98,NW,315,0.0,0.0,90,0.00,,,0.16,VWS V14.01,2013-10-21 01:34:00,
2013-10-20 21:35:00,38.7,36.0,29.98,NW,315,0.0,0.0,90,0.00,,,0.16,VWS V14.01,2013-10-21 01:35:00,
2013-10-20 21:36:00,38.7,36.0,29.98,NW,315,0.0,0.0,90,0.00,,,0.16,VWS V14.01,2013-10-21 01:36:00,
2013-10-20 21:39:00,38.5,35.5,29.98,NNW,338,0.0,0.0,89,0.00,,,0.16,VWS V14.01,2013-10-21 01:39:00,
2013-10-20 21:40:00,38.5,35.5,29.98,NNW,338,0.0,0.0,89,0.00,,,0.16,VWS V14.01,2013-10-21 01:40:00,
2013-10-20 21:41:00,38.5,35.8,29.98,West,270,0.4,0.4,90,0.00,,,0.16,VWS V14.01,2013-10-21 01:41:00,
2013-10-20 21:42:00,38.5,35.8,29.98,West,270,0.4,0.4,90,0.00,,,0.16,VWS V14.01,2013-10-21 01:42:00,
2013-10-20 21:44:00,38.5,35.8,29.98,WSW,248,0.7,0.7,90,0.00,,,0.16,VWS V14.01,2013-10-21 01:44:00,
2013-10-20 21:45:00,38.5,35.8,29.98,WSW,248,0.7,0.7,90,0.00,,,0.16,VWS V14.01,2013-10-21 01:45:00,
2013-10-20 21:47:00,38.5,35.5,29.98,NW,315,0.0,0.0,89,0.00,,,0.16,VWS V14.01,2013-10-21 01:47:00,
2013-10-20 21:49:00,38.2,34.7,29.98,NW,315,0.0,0.0,87,0.00,,,0.16,VWS V14.01,2013-10-21 01:49:00,
2013-10-20 21:50:00,38.2,34.7,29.98,NW,315,0.0,0.0,87,0.00,,,0.16,VWS V14.01,2013-10-21 01:50:00,
2013-10-20 21:51:00,38.2,34.7,29.98,NW,315,0.0,0.0,87,0.00,,,0.16,VWS V14.01,2013-10-21 01:51:00,
2013-10-20 21:52:00,38.2,35.0,29.98,NW,315,0.0,0.0,88,0.00,,,0.16,VWS V14.01,2013-10-21 01:52:00,
2013-10-20 21:55:00,38.2,35.8,29.98,NW,315,0.0,0.0,91,0.00,,,0.16,VWS V14.01,2013-10-21 01:55:00,
2013-10-20 21:56:00,38.2,35.5,29.98,NW,315,0.0,0.0,90,0.00,,,0.16,VWS V14.01,2013-10-21 01:56:00,
2013-10-20 21:57:00,38.2,35.5,29.98,NW,315,0.0,0.0,90,0.00,,,0.16,VWS V14.01,2013-10-21 01:57:00,
2013-10-20 22:00:00,38.0,35.3,29.99,NW,315,0.0,0.0,90,0.00,,,0.16,VWS V14.01,2013-10-21 02:00:00,
2013-10-20 22:01:00,38.0,35.0,29.98,NW,315,0.0,0.0,89,0.00,,,0.16,VWS V14.01,2013-10-21 02:01:00,
2013-10-20 22:02:00,37.8,34.9,29.98,NW,315,0.0,0.0,89,0.00,,,0.16,VWS V14.01,2013-10-21 02:02:00,
2013-10-20 22:03:00,37.8,34.9,29.98,NW,315,0.0,0.0,89,0.00,,,0.16,VWS V14.01,2013-10-21 02:03:00,
2013-10-20 22:05:00,37.8,34.9,29.98,NW,315,0.0,0.0,89,0.00,,,0.16,VWS V14.01,2013-10-21 02:05:00,
2013-10-20 22:06:00,37.8,35.1,29.98,NW,315,0.0,0.0,90,0.00,,,0.16,VWS V14.01,2013-10-21 02:06:00,
2013-10-20 22:07:00,37.8,35.1,29.99,WNW,292,0.0,0.0,90,0.00,,,0.16,VWS V14.01,2013-10-21 02:07:00,
2013-10-20 22:08:00,37.8,35.1,29.99,WNW,292,0.0,0.0,90,0.00,,,0.16,VWS V14.01,2013-10-21 02:08:00,
2013-10-20 22:11:00,37.8,35.1,29.98,WNW,292,0.0,0.0,90,0.00,,,0.16,VWS V14.01,2013-10-21 02:11:00,
2013-10-20 22:13:00,37.6,34.9,29.99,WNW,292,0.0,0.0,90,0.00,,,0.16,VWS V14.01,2013-10-21 02:13:00,
2013-10-20 22:16:00,37.4,34.5,29.99,WNW,292,0.0,0.0,89,0.00,,,0.16,VWS V14.01,2013-10-21 02:16:00,
2013-10-20 22:17:00,37.3,34.4,29.99,WNW,292,0.0,0.0,89,0.00,,,0.16,VWS V14.01,2013-10-21 02:17:00,
2013-10-20 22:18:00,37.3,34.1,29.99,WNW,292,0.0,0.0,88,0.00,,,0.16,VWS V14.01,2013-10-21 02:18:00,
2013-10-20 22:19:00,37.3,34.1,29.99,WNW,292,0.0,0.0,88,0.00,,,0.16,VWS V14.01,2013-10-21 02:19:00,
2013-10-20 22:21:00,37.3,34.6,29.99,WNW,292,0.0,0.0,90,0.00,,,0.16,VWS V14.01,2013-10-21 02:21:00,
2013-10-20 22:23:00,37.4,35.3,29.99,WNW,292,0.0,0.0,92,0.00,,,0.16,VWS V14.01,2013-10-21 02:23:00,
2013-10-20 22:24:00,37.4,35.3,29.99,WNW,292,0.0,0.0,92,0.00,,,0.16,VWS V14.01,2013-10-21 02:24:00,
2013-10-20 22:26:00,37.4,34.7,29.99,WNW,292,0.0,0.0,90,0.00,,,0.16,VWS V14.01,2013-10-21 02:26:00,
2013-10-20 22:28:00,37.4,35.0,29.99,WNW,292,0.0,0.0,91,0.00,,,0.16,VWS V14.01,2013-10-21 02:28:00,
2013-10-20 22:29:00,37.4,35.0,29.99,WNW,292,0.0,0.0,91,0.00,,,0.16,VWS V14.01,2013-10-21 02:29:00,
2013-10-20 22:31:00,37.3,34.9,29.99,WNW,292,0.0,0.0,91,0.00,,,0.16,VWS V14.01,2013-10-21 02:31:00,
2013-10-20 22:33:00,37.1,34.7,29.99,WNW,292,0.0,0.0,91,0.00,,,0.16,VWS V14.01,2013-10-21 02:33:00,
2013-10-20 22:34:00,37.1,34.7,29.99,WNW,292,0.0,0.0,91,0.00,,,0.16,VWS V14.01,2013-10-21 02:34:00,
2013-10-20 22:36:00,36.7,34.0,29.99,WNW,292,0.0,0.0,90,0.00,,,0.16,VWS V14.01,2013-10-21 02:36:00,
2013-10-20 22:37:00,36.7,33.8,29.99,WNW,292,0.0,0.0,89,0.00,,,0.16,VWS V14.01,2013-10-21 02:37:00,
2013-10-20 22:38:00,36.7,33.8,29.99,NW,315,0.0,0.0,89,0.00,,,0.16,VWS V14.01,2013-10-21 02:38:00,
2013-10-20 22:39:00,36.7,33.8,29.99,NW,315,0.0,0.0,89,0.00,,,0.16,VWS V14.01,2013-10-21 02:39:00,
2013-10-20 22:40:00,36.7,33.8,29.99,NW,315,0.0,0.0,89,0.00,,,0.16,VWS V14.01,2013-10-21 02:40:00,
2013-10-20 22:42:00,36.7,33.8,30.00,NW,315,0.0,0.0,89,0.00,,,0.16,VWS V14.01,2013-10-21 02:42:00,
2013-10-20 22:43:00,36.7,33.8,30.00,NW,315,0.0,0.0,89,0.00,,,0.16,VWS V14.01,2013-10-21 02:43:00,
2013-10-20 22:44:00,36.7,33.8,30.00,NW,315,0.0,0.0,89,0.00,,,0.16,VWS V14.01,2013-10-21 02:44:00,
2013-10-20 22:45:00,36.7,33.8,29.99,NW,315,0.0,0.0,89,0.00,,,0.16,VWS V14.01,2013-10-21 02:45:00,
2013-10-20 22:47:00,36.7,33.5,30.00,NNW,338,0.0,0.0,88,0.00,,,0.16,VWS V14.01,2013-10-21 02:47:00,
2013-10-20 22:48:00,36.7,33.5,30.00,NNW,338,0.0,0.0,88,0.00,,,0.16,VWS V14.01,2013-10-21 02:48:00,
2013-10-20 22:49:00,36.7,33.5,30.00,NNW,338,0.0,0.0,88,0.00,,,0.16,VWS V14.01,2013-10-21 02:49:00,
2013-10-20 22:50:00,36.7,33.8,30.00,NNW,338,0.0,0.0,89,0.00,,,0.16,VWS V14.01,2013-10-21 02:50:00,
2013-10-20 22:53:00,36.7,34.6,30.00,NW,315,0.0,0.0,92,0.00,,,0.16,VWS V14.01,2013-10-21 02:53:00,
2013-10-20 22:54:00,36.7,34.6,30.00,NW,315,0.0,0.0,92,0.00,,,0.16,VWS V14.01,2013-10-21 02:54:00,
2013-10-20 22:55:00,36.7,34.6,30.00,NW,315,0.0,0.0,92,0.00,,,0.16,VWS V14.01,2013-10-21 02:55:00,
2013-10-20 22:58:00,36.7,34.6,30.00,NW,315,0.0,0.0,92,0.00,,,0.16,VWS V14.01,2013-10-21 02:58:00,
2013-10-20 22:59:00,36.7,34.6,30.00,NW,315,0.0,0.0,92,0.00,,,0.16,VWS V14.01,2013-10-21 02:59:00,
2013-10-20 23:00:00,36.7,34.6,30.00,NW,315,0.0,0.0,92,0.00,,,0.16,VWS V14.01,2013-10-21 03:00:00,
2013-10-20 23:01:00,36.7,34.6,30.00,NW,315,0.0,0.0,92,0.00,,,0.16,VWS V14.01,2013-10-21 03:01:00,
2013-10-20 23:03:00,36.7,34.6,30.00,NW,315,0.0,0.0,92,0.00,,,0.16,VWS V14.01,2013-10-21 03:03:00,
2013-10-20 23:04:00,36.5,34.4,29.99,NW,315,0.0,0.0,92,0.00,,,0.16,VWS V14.01,2013-10-21 03:04:00,
2013-10-20 23:05:00,36.7,34.6,30.00,NW,315,0.0,0.0,92,0.00,,,0.16,VWS V14.01,2013-10-21 03:05:00,
2013-10-20 23:06:00,36.5,34.4,30.00,WNW,292,0.0,0.0,92,0.00,,,0.16,VWS V14.01,2013-10-21 03:06:00,
2013-10-20 23:08:00,36.5,34.4,30.00,WNW,292,0.0,0.0,92,0.00,,,0.16,VWS V14.01,2013-10-21 03:08:00,
2013-10-20 23:09:00,36.5,34.4,30.00,WNW,292,0.0,0.0,92,0.00,,,0.16,VWS V14.01,2013-10-21 03:09:00,
2013-10-20 23:10:00,36.4,34.3,30.00,WNW,292,0.0,0.0,92,0.00,,,0.16,VWS V14.01,2013-10-21 03:10:00,
2013-10-20 23:11:00,36.4,34.0,29.99,WNW,292,0.0,0.0,91,0.00,,,0.16,VWS V14.01,2013-10-21 03:11:00,
2013-10-20 23:13:00,36.2,33.8,30.00,WNW,292,0.0,0.0,91,0.00,,,0.16,VWS V14.01,2013-10-21 03:13:00,
2013-10-20 23:14:00,36.2,33.8,30.00,WNW,292,0.0,0.0,91,0.00,,,0.16,VWS V14.01,2013-10-21 03:14:00,
2013-10-20 23:15:00,36.0,33.6,30.00,WNW,292,0.0,0.0,91,0.00,,,0.16,VWS V14.01,2013-10-21 03:15:00,
2013-10-20 23:16:00,36.0,33.4,30.00,WNW,292,0.0,0.0,90,0.00,,,0.16,VWS V14.01,2013-10-21 03:16:00,
2013-10-20 23:18:00,36.0,33.6,30.00,WNW,292,0.0,0.0,91,0.00,,,0.16,VWS V14.01,2013-10-21 03:18:00,
2013-10-20 23:19:00,36.0,33.6,30.00,WNW,292,0.0,0.0,91,0.00,,,0.16,VWS V14.01,2013-10-21 03:19:00,
2013-10-20 23:20:00,36.0,33.6,30.00,WNW,292,0.0,0.0,91,0.00,,,0.16,VWS V14.01,2013-10-21 03:20:00,
2013-10-20 23:21:00,36.0,33.9,30.00,WNW,292,0.0,0.0,92,0.00,,,0.16,VWS V14.01,2013-10-21 03:21:00,
2013-10-20 23:23:00,36.0,33.9,30.00,WNW,292,0.0,0.0,92,0.00,,,0.16,VWS V14.01,2013-10-21 03:23:00,
2013-10-20 23:24:00,36.0,33.9,30.00,WNW,292,0.0,0.0,92,0.00,,,0.16,VWS V14.01,2013-10-21 03:24:00,
2013-10-20 23:25:00,36.0,33.9,30.00,WNW,292,0.0,0.0,92,0.00,,,0.16,VWS V14.01,2013-10-21 03:25:00,
2013-10-20 23:26:00,35.8,33.7,30.00,WNW,292,0.0,0.0,92,0.00,,,0.16,VWS V14.01,2013-10-21 03:26:00,
2013-10-20 23:28:00,35.8,33.7,30.00,West,270,0.0,0.0,92,0.00,,,0.16,VWS V14.01,2013-10-21 03:28:00,
2013-10-20 23:29:00,35.8,33.7,30.00,West,270,0.0,0.0,92,0.00,,,0.16,VWS V14.01,2013-10-21 03:29:00,
2013-10-20 23:30:00,35.6,33.5,30.00,West,270,0.0,0.0,92,0.00,,,0.16,VWS V14.01,2013-10-21 03:30:00,
2013-10-20 23:31:00,35.6,33.5,30.00,West,270,0.0,0.0,92,0.00,,,0.16,VWS V14.01,2013-10-21 03:31:00,
2013-10-20 23:34:00,35.6,33.2,30.00,WNW,292,0.0,0.0,91,0.00,,,0.16,VWS V14.01,2013-10-21 03:34:00,
2013-10-20 23:35:00,35.6,33.5,30.00,WNW,292,0.0,0.0,92,0.00,,,0.16,VWS V14.01,2013-10-21 03:35:00,
2013-10-20 23:36:00,35.6,33.5,30.00,WNW,292,0.0,0.0,92,0.00,,,0.16,VWS V14.01,2013-10-21 03:36:00,
2013-10-20 23:37:00,35.6,33.5,30.00,WNW,292,0.0,0.0,92,0.00,,,0.16,VWS V14.01,2013-10-21 03:37:00,
2013-10-20 23:39:00,35.5,33.4,30.00,WNW,292,0.0,0.0,92,0.00,,,0.16,VWS V14.01,2013-10-21 03:39:00,
2013-10-20 23:41:00,35.5,33.4,30.00,WNW,292,0.0,0.0,92,0.00,,,0.16,VWS V14.01,2013-10-21 03:41:00,
2013-10-20 23:42:00,35.3,33.2,30.00,WNW,292,0.0,0.0,92,0.00,,,0.16,VWS V14.01,2013-10-21 03:42:00,
2013-10-20 23:44:00,35.3,33.2,30.00,WNW,292,0.0,0.0,92,0.00,,,0.16,VWS V14.01,2013-10-21 03:44:00,
2013-10-20 23:46:00,35.3,33.2,30.00,WNW,292,0.0,0.0,92,0.00,,,0.16,VWS V14.01,2013-10-21 03:46:00,
2013-10-20 23:47:00,35.3,33.2,30.00,WNW,292,0.0,0.0,92,0.00,,,0.16,VWS V14.01,2013-10-21 03:47:00,
2013-10-20 23:48:00,35.3,33.2,30.00,WNW,292,0.0,0.0,92,0.00,,,0.16,VWS V14.01,2013-10-21 03:48:00,
2013-10-20 23:49:00,35.3,32.9,30.00,WNW,292,0.0,0.0,91,0.00,,,0.16,VWS V14.01,2013-10-21 03:49:00,
2013-10-20 23:50:00,35.3,32.9,30.00,WNW,292,0.0,0.0,91,0.00,,,0.16,VWS V14.01,2013-10-21 03:50:00,
2013-10-20 23:51:00,35.1,32.5,30.00,WNW,292,0.0,0.0,90,0.00,,,0.16,VWS V14.01,2013-10-21 03:51:00,
2013-10-20 23:52:00,35.1,32.5,30.00,WNW,292,0.0,0.0,90,0.00,,,0.16,VWS V14.01,2013-10-21 03:52:00,
2013-10-20 23:53:00,35.1,32.5,30.00,WNW,292,0.0,0.0,90,0.00,,,0.16,VWS V14.01,2013-10-21 03:53:00,
2013-10-20 23:54:00,34.9,32.3,30.00,WNW,292,0.0,0.0,90,0.00,,,0.16,VWS V14.01,2013-10-21 03:54:00,
2013-10-20 23:55:00,34.9,32.3,30.00,WNW,292,0.0,0.0,90,0.00,,,0.16,VWS V14.01,2013-10-21 03:55:00,
2013-10-20 23:57:00,34.9,32.3,30.00,WNW,292,0.0,0.0,90,0.00,,,0.16,VWS V14.01,2013-10-21 03:57:00,
2013-10-20 23:58:00,34.9,32.8,29.99,WNW,292,0.0,0.0,92,0.00,,,0.16,VWS V14.01,2013-10-21 03:58:00,
2013-10-20 23:59:00,35.1,33.3,30.00,WNW,292,0.0,0.0,93,0.00,,,0.16,VWS V14.01,2013-10-21 03:59:00,